M I D A S
Marine Information and Data Acquisition System
Tripno 1500 of the Zeeleeuw from 2008-06-10 06:42:01 to 2008-06-10 13:07:52
Back to CruiseResearch ActivitiesStationsMapUnderway DataData graphs

EquipmentUnitsComment
TimeDGPSUTC
LatitudeDGPSDM.mWGS84
LongitudeDGPSDM.mWGS84
TemperatureSBE03/SBE38deg celciusITS90
ConductivitySBE21S/mITS90
SalinitySBE21 Practical Salinity Units
ChlorophylAChelsea fluorimeterg/lCalibrated in Aceton
Missing or incorrect values are displayed as -999
Sea surface data collected by the RV Zeeleeuw from 2008-06-10 06:14:03 to 2008-06-10 13:10:29
                                                                                    Next 1000 lines
Time Latitude Longitude Temperature Conductivity Salinity ChlorophylA
2008-06-10 06:14:13 51°13.623 2°56.045 19.7672 1.248763 8.075993 -1.662225
2008-06-10 06:14:18 51°13.624 2°56.042 19.8081 0.961026 6.088829 -1.662225
2008-06-10 06:14:23 51°13.624 2°56.038 19.7853 1.543779 10.16091 -1.662225
2008-06-10 06:14:28 51°13.626 2°56.033 19.8091 1.612606 10.653607 -1.662225
2008-06-10 06:14:33 51°13.628 2°56.027 19.8062 1.612606 10.653607 -1.662225
2008-06-10 06:14:38 51°13.629 2°56.021 19.8084 1.590832 10.497752 -1.662225
2008-06-10 06:14:43 51°13.632 2°56.014 19.8149 1.566995 10.32717 -1.662225
2008-06-10 06:14:48 51°13.634 2°56.006 19.8091 1.579481 10.416296 -1.662225
2008-06-10 06:14:53 51°13.636 2°55.998 19.8224 1.571948 10.362402 -1.662225
2008-06-10 06:14:58 51°13.639 2°55.989 19.8301 1.588459 10.480562 -1.662225
2008-06-10 06:15:03 51°13.641 2°55.98 19.826 1.587427 10.473173 -1.662225
2008-06-10 06:15:08 51°13.644 2°55.97 19.8191 1.587427 10.473173 -1.662225
2008-06-10 06:15:13 51°13.647 2°55.96 19.8316 1.615805 10.676553 -1.662225
2008-06-10 06:15:18 51°13.65 2°55.95 19.8348 1.636342 10.824364 -1.662225
2008-06-10 06:15:23 51°13.654 2°55.94 19.833 1.634381 10.810479 -1.662225
2008-06-10 06:15:28 51°13.657 2°55.929 19.8381 1.657601 10.97738 -1.662225
2008-06-10 06:15:33 51°13.66 2°55.918 19.835 1.657601 10.97738 -1.662225
2008-06-10 06:15:38 51°13.663 2°55.908 19.8348 1.674631 11.099935 -1.662225
2008-06-10 06:15:43 51°13.666 2°55.897 19.8353 1.650274 10.924686 -1.662225
2008-06-10 06:15:48 51°13.669 2°55.886 19.8404 1.674424 11.098449 -1.662225
2008-06-10 06:15:53 51°13.672 2°55.875 19.8399 1.686706 11.187126 -1.662225
2008-06-10 06:15:58 51°13.674 2°55.864 19.8414 1.670502 11.070212 -1.662225
2008-06-10 06:16:03 51°13.676 2°55.853 19.8465 1.670502 11.070212 -1.662225
2008-06-10 06:16:08 51°13.678 2°55.843 19.8485 1.687532 11.193076 -1.662225
2008-06-10 06:16:13 51°13.679 2°55.834 19.8507 1.684642 11.172251 -1.662225
2008-06-10 06:16:18 51°13.68 2°55.825 19.8497 1.684952 11.174688 -1.662225
2008-06-10 06:16:23 51°13.681 2°55.816 19.8485 1.691867 11.224527 -1.662225
2008-06-10 06:16:28 51°13.682 2°55.808 19.8436 1.68619 11.183819 -1.662225
2008-06-10 06:16:33 51°13.683 2°55.8 19.8457 1.688151 11.197951 -1.662225
2008-06-10 06:16:38 51°13.684 2°55.793 19.8465 1.688151 11.197951 -1.662225
2008-06-10 06:16:43 51°13.685 2°55.786 19.8494 1.700124 11.284272 -1.662225
2008-06-10 06:16:48 51°13.686 2°55.779 19.8486 1.621584 10.7192 -1.662225
2008-06-10 06:16:53 51°13.686 2°55.772 19.8396 1.689803 11.209854 -1.662225
2008-06-10 06:16:58 51°13.686 2°55.766 19.845 1.701259 11.292461 -1.662225
2008-06-10 06:17:03 51°13.687 2°55.761 19.8395 1.701259 11.292461 -1.662225
2008-06-10 06:17:08 51°13.687 2°55.756 19.8308 1.693931 11.239822 -1.662225
2008-06-10 06:17:13 51°13.688 2°55.751 19.8364 1.70064 11.287994 -1.662225
2008-06-10 06:17:18 51°13.688 2°55.747 19.8383 1.694138 11.241311 -1.662225
2008-06-10 06:17:23 51°13.688 2°55.743 19.8336 1.69228 11.22771 -1.662225
2008-06-10 06:17:28 51°13.688 2°55.74 19.8356 1.696821 11.26066 -1.662225
2008-06-10 06:17:33 51°13.687 2°55.737 19.8424 1.696821 11.26066 -1.662225
2008-06-10 06:17:38 51°13.687 2°55.735 19.8491 1.699298 11.278525 -1.662225
2008-06-10 06:17:43 51°13.688 2°55.734 19.8498 1.698885 11.275755 -1.662225
2008-06-10 06:17:48 51°13.688 2°55.733 19.8538 1.697234 11.263845 -1.662225
2008-06-10 06:17:53 51°13.689 2°55.734 19.8706 1.700434 11.286921 -1.662225
2008-06-10 06:17:58 51°13.69 2°55.735 19.8795 1.700846 11.290107 -1.662225
2008-06-10 06:18:03 51°13.692 2°55.737 19.8924 1.700846 11.290107 -1.662225
2008-06-10 06:18:08 51°13.695 2°55.74 19.8934 1.70611 11.328292 -1.662225
2008-06-10 06:18:13 51°13.699 2°55.743 19.8981 1.671741 11.080353 -1.662225
2008-06-10 06:18:18 51°13.703 2°55.745 19.8983 1.656673 10.971912 -1.662225
2008-06-10 06:18:23 51°13.708 2°55.746 19.9004 1.612193 10.652216 -1.662225
2008-06-10 06:18:28 51°13.713 2°55.746 19.9042 1.574425 10.381647 -1.662225
2008-06-10 06:18:33 51°13.719 2°55.744 19.8994 1.512722 9.941243 -1.662225
2008-06-10 06:18:38 51°13.725 2°55.741 19.9055 1.512722 9.941243 -1.662225
2008-06-10 06:18:43 51°13.732 2°55.736 19.9032 0.646248 3.978469 -1.662225
2008-06-10 06:18:48 51°13.739 2°55.729 19.8625 0.547575 3.332832 -1.662225
2008-06-10 06:18:53 51°13.746 2°55.721 19.8178 0.526051 3.193096 -1.662225
2008-06-10 06:18:58 51°13.755 2°55.712 19.8238 0.819018 5.127422 -1.662225
2008-06-10 06:19:03 51°13.764 2°55.703 19.799 0.819018 5.127422 -1.662225
2008-06-10 06:19:08 51°13.774 2°55.693 19.7656 1.047506 6.680971 -1.662225
2008-06-10 06:19:13 51°13.784 2°55.682 19.7698 0.717637 4.450043 -1.662225
2008-06-10 06:19:18 51°13.793 2°55.673 19.728 0.959995 6.081914 -1.662225
2008-06-10 06:19:23 51°13.803 2°55.664 19.7103 1.130907 7.256414 -1.662225
2008-06-10 06:19:28 51°13.811 2°55.656 19.7093 1.434624 9.384659 -1.662225
2008-06-10 06:19:33 51°13.82 2°55.648 19.7787 1.434624 9.384659 -1.662225
2008-06-10 06:19:38 51°13.829 2°55.641 19.825 1.534699 10.096476 -1.662225
2008-06-10 06:19:43 51°13.838 2°55.633 19.8301 1.607137 10.614975 -1.662225
2008-06-10 06:19:48 51°13.848 2°55.625 19.829 1.506222 9.894024 -1.662225
2008-06-10 06:19:53 51°13.858 2°55.617 19.8335 1.572567 10.367785 -1.662225
2008-06-10 06:19:58 51°13.868 2°55.609 19.8335 1.559669 10.275741 -1.662225
2008-06-10 06:20:03 51°13.879 2°55.601 19.8326 1.396868 9.118307 -1.662225
2008-06-10 06:20:08 51°13.89 2°55.592 19.8306 1.396868 9.118307 -1.662225
2008-06-10 06:20:13 51°13.901 2°55.583 19.8231 1.257116 8.135589 -1.662225
2008-06-10 06:20:18 51°13.912 2°55.574 19.8224 1.471144 9.644672 -1.662225
2008-06-10 06:20:23 51°13.924 2°55.566 19.8355 1.623648 10.733816 -1.662225
2008-06-10 06:20:28 51°13.936 2°55.557 19.8366 1.129669 7.248649 -1.662225
2008-06-10 06:20:33 51°13.947 2°55.548 19.7952 1.129669 7.248649 -1.662225
2008-06-10 06:20:38 51°13.959 2°55.539 19.8098 1.200297 7.738901 -1.662225
2008-06-10 06:20:43 51°13.97 2°55.53 19.782 1.2401 8.016503 -1.662225
2008-06-10 06:20:48 51°13.981 2°55.522 19.7856 1.333537 8.671701 -1.662225
2008-06-10 06:20:53 51°13.992 2°55.514 19.8212 1.497246 9.830477 -1.662225
2008-06-10 06:20:58 51°14.003 2°55.507 19.8231 1.424101 9.311321 -1.662225
2008-06-10 06:21:03 51°14.013 2°55.499 19.8225 1.424101 9.311321 -1.662225
2008-06-10 06:21:08 51°14.023 2°55.491 19.8171 1.301358 8.445892 -1.662225
2008-06-10 06:21:13 51°14.032 2°55.484 19.838 1.359838 8.857412 -1.662225
2008-06-10 06:21:18 51°14.042 2°55.478 19.8381 1.470731 9.642272 -1.662225
2008-06-10 06:21:23 51°14.05 2°55.471 19.8517 1.563487 10.303603 -1.662225
2008-06-10 06:21:28 51°14.059 2°55.464 19.8568 1.540683 10.140866 -1.662225
2008-06-10 06:21:33 51°14.068 2°55.458 19.8578 1.540683 10.140866 -1.662225
2008-06-10 06:21:38 51°14.077 2°55.451 19.8604 1.514785 9.956131 -1.662225
2008-06-10 06:21:43 51°14.086 2°55.444 19.86 1.603938 10.593602 -1.662225
2008-06-10 06:21:48 51°14.096 2°55.437 19.8614 1.63469 10.814296 -1.662225
2008-06-10 06:21:53 51°14.107 2°55.429 19.8625 1.529127 10.058579 -1.662225
2008-06-10 06:21:58 51°14.117 2°55.42 19.8575 1.453502 9.520456 -1.662225
2008-06-10 06:22:03 51°14.128 2°55.411 19.8514 1.447106 9.474897 -1.662225
2008-06-10 06:22:08 51°14.139 2°55.402 19.8498 1.447106 9.474897 -1.662225
2008-06-10 06:22:13 51°14.15 2°55.392 19.8524 1.568233 10.337737 -1.662225
2008-06-10 06:22:18 51°14.161 2°55.382 19.8684 1.564622 10.312099 -1.662225
2008-06-10 06:22:23 51°14.172 2°55.371 19.8671 1.413579 9.237512 -1.662225
2008-06-10 06:22:28 51°14.183 2°55.36 19.8654 1.427506 9.335948 -1.662225
2008-06-10 06:22:33 51°14.194 2°55.348 19.8692 1.427506 9.335948 -1.662225
2008-06-10 06:22:38 51°14.204 2°55.335 19.865 1.39233 9.087235 -1.697049
2008-06-10 06:22:43 51°14.215 2°55.322 19.869 1.32116 8.585613 -1.662225
2008-06-10 06:22:48 51°14.226 2°55.308 19.8806 1.518397 9.982239 -1.662225
2008-06-10 06:22:53 51°14.236 2°55.292 19.854 1.070184 6.838632 -1.662225
2008-06-10 06:22:58 51°14.245 2°55.276 19.848 0.898159 5.662751 -1.662225
2008-06-10 06:23:03 51°14.255 2°55.26 19.8469 0.898159 5.662751 -1.662225
2008-06-10 06:23:08 51°14.265 2°55.243 19.8515 1.095854 7.015266 -1.662225
2008-06-10 06:23:13 51°14.275 2°55.226 19.8476 0.987927 6.273746 -1.662225
2008-06-10 06:23:18 51°14.285 2°55.208 19.8362 1.046887 6.677947 -1.662225
2008-06-10 06:23:23 51°14.295 2°55.189 19.8564 1.041836 6.643113 -1.662225
2008-06-10 06:23:28 51°14.305 2°55.17 19.8539 1.247628 8.069697 -1.662225
2008-06-10 06:23:33 51°14.316 2°55.151 19.8197 0.716092 4.440511 -1.662225
2008-06-10 06:23:38 51°14.326 2°55.13 19.772 0.716092 4.440511 -1.662225
2008-06-10 06:23:43 51°14.337 2°55.11 19.7724 0.71434 4.428797 -1.662225
2008-06-10 06:23:48 51°14.347 2°55.089 19.7455 0.821698 5.146184 -1.662225
2008-06-10 06:23:53 51°14.359 2°55.07 19.7371 1.029982 6.561589 -1.662225
2008-06-10 06:23:58 51°14.371 2°55.05 19.7536 1.570607 10.354142 -1.662225
2008-06-10 06:24:03 51°14.384 2°55.033 19.8136 1.505087 9.887215 -1.662225
2008-06-10 06:24:08 51°14.397 2°55.014 19.7986 1.505087 9.887215 -1.662225
2008-06-10 06:24:13 51°14.41 2°54.997 19.8206 1.431941 9.367722 -1.662225
2008-06-10 06:24:18 51°14.424 2°54.98 19.8192 1.339828 8.717419 -1.662225
2008-06-10 06:24:23 51°14.437 2°54.963 19.8083 1.2533 8.110396 -1.662225
2008-06-10 06:24:28 51°14.45 2°54.945 19.8322 1.074823 6.87072 -1.662225
2008-06-10 06:24:33 51°14.464 2°54.929 19.8256 1.074823 6.87072 -1.662225
2008-06-10 06:24:38 51°14.478 2°54.912 19.8499 1.340447 8.721454 -1.662225
2008-06-10 06:24:43 51°14.491 2°54.896 19.8427 1.262272 8.172715 -1.662225
2008-06-10 06:24:48 51°14.504 2°54.879 19.8468 1.155342 7.42739 -1.662225
2008-06-10 06:24:53 51°14.517 2°54.861 19.841 1.209578 7.804407 -1.662225
2008-06-10 06:24:58 51°14.529 2°54.843 19.801 0.665408 4.104866 -1.662225
2008-06-10 06:25:03 51°14.542 2°54.825 19.8033 0.665408 4.104866 -1.662225
2008-06-10 06:25:08 51°14.555 2°54.808 19.8445 1.347976 8.773507 -1.662225
2008-06-10 06:25:13 51°14.567 2°54.79 19.8337 1.096163 7.017401 -1.662225
2008-06-10 06:25:18 51°14.579 2°54.771 19.835 0.73206 4.546774 -1.662225
2008-06-10 06:25:23 51°14.591 2°54.753 19.7984 1.349524 8.784889 -1.662225
2008-06-10 06:25:28 51°14.603 2°54.734 19.8486 0.77595 4.839911 -1.662225
2008-06-10 06:25:33 51°14.615 2°54.715 19.8249 1.164415 7.490646 -1.662225
2008-06-10 06:25:38 51°14.626 2°54.696 19.841 1.164415 7.490646 -1.662225
2008-06-10 06:25:43 51°14.638 2°54.677 19.8413 1.12668 7.229149 -1.662225
2008-06-10 06:25:48 51°14.649 2°54.657 19.8428 1.033383 6.585907 -1.662225
2008-06-10 06:25:53 51°14.66 2°54.637 19.8329 1.116988 7.161958 -1.662225
2008-06-10 06:25:58 51°14.67 2°54.617 19.8132 1.075133 6.872978 -1.662225
2008-06-10 06:26:03 51°14.681 2°54.597 19.8384 1.075133 6.872978 -1.662225
2008-06-10 06:26:08 51°14.692 2°54.576 19.8104 0.957521 6.066501 -1.662225
2008-06-10 06:26:13 51°14.702 2°54.556 19.8178 1.288157 8.353745 -1.662225
2008-06-10 06:26:18 51°14.713 2°54.535 19.8351 1.224117 7.905795 -1.662225
2008-06-10 06:26:23 51°14.724 2°54.515 19.8424 0.935157 5.914082 -1.662225
2008-06-10 06:26:28 51°14.734 2°54.494 19.8219 1.17287 7.5491 -1.662225
2008-06-10 06:26:33 51°14.745 2°54.473 19.8123 1.17287 7.5491 -1.662225
2008-06-10 06:26:38 51°14.755 2°54.452 19.8357 1.056062 6.741532 -1.662225
2008-06-10 06:26:43 51°14.766 2°54.431 19.8215 1.179366 7.594389 -1.662225
2008-06-10 06:26:48 51°14.776 2°54.41 19.822 1.171426 7.53907 -1.662225
2008-06-10 06:26:53 51°14.787 2°54.389 19.8298 1.157816 7.444562 -1.662225
2008-06-10 06:26:58 51°14.797 2°54.369 19.8336 1.029363 6.557947 -1.662225
2008-06-10 06:27:03 51°14.808 2°54.348 19.8459 1.106988 7.092689 -1.662225
2008-06-10 06:27:08 51°14.819 2°54.327 19.8501 1.106988 7.092689 -1.662225
2008-06-10 06:27:13 51°14.829 2°54.307 19.8387 1.382943 9.021258 -1.662225
2008-06-10 06:27:18 51°14.84 2°54.286 19.8227 1.065649 6.807518 -1.662225
2008-06-10 06:27:23 51°14.851 2°54.266 19.7979 1.206072 7.780263 -1.662225
2008-06-10 06:27:28 51°14.862 2°54.246 19.8138 0.924438 5.841421 -1.662225
2008-06-10 06:27:33 51°14.874 2°54.226 19.8084 0.924438 5.841421 -1.662225
2008-06-10 06:27:38 51°14.886 2°54.206 19.8249 0.941649 5.958375 -1.662225
2008-06-10 06:27:43 51°14.897 2°54.187 19.8316 1.120597 7.186787 -1.662225
2008-06-10 06:27:48 51°14.909 2°54.167 19.8489 1.656053 10.96867 -1.662225
2008-06-10 06:27:53 51°14.92 2°54.147 19.8518 0.963912 6.110416 -1.662225
2008-06-10 06:27:58 51°14.931 2°54.126 19.8327 1.381602 9.011955 -1.662225
2008-06-10 06:28:03 51°14.942 2°54.106 19.8525 1.381602 9.011955 -1.662225
2008-06-10 06:28:08 51°14.952 2°54.084 19.8041 1.011118 6.432948 -1.662225
2008-06-10 06:28:13 51°14.963 2°54.063 19.848 1.266088 8.199423 -1.662225
2008-06-10 06:28:18 51°14.973 2°54.042 19.8022 1.317241 8.558224 -1.662225
2008-06-10 06:28:23 51°14.984 2°54.021 19.8518 1.180706 7.603848 -1.662225
2008-06-10 06:28:28 51°14.994 2°54 19.8402 1.27176 8.23929 -1.662225
2008-06-10 06:28:33 51°15.005 2°53.979 19.8226 1.27176 8.23929 -1.662225
2008-06-10 06:28:38 51°15.015 2°53.957 19.8341 0.95175 6.027384 -1.662225
2008-06-10 06:28:43 51°15.025 2°53.936 19.8349 1.282279 8.313146 -1.662225
2008-06-10 06:28:48 51°15.036 2°53.914 19.8506 1.095854 7.016169 -1.662225
2008-06-10 06:28:53 51°15.046 2°53.893 19.866 1.400788 9.148036 -1.662225
2008-06-10 06:28:58 51°15.055 2°53.87 19.8446 1.078844 6.898939 -1.662225
2008-06-10 06:29:03 51°15.064 2°53.848 19.8656 0.958552 6.073974 -1.662225
2008-06-10 06:29:08 51°15.072 2°53.825 19.8601 0.958552 6.073974 -1.662225
2008-06-10 06:29:13 51°15.081 2°53.802 19.8351 0.972982 6.172319 -1.662225
2008-06-10 06:29:18 51°15.089 2°53.779 19.8498 1.012974 6.445899 -1.662225
2008-06-10 06:29:23 51°15.097 2°53.755 19.8285 1.506119 9.895111 -1.662225
2008-06-10 06:29:28 51°15.105 2°53.732 19.8784 0.662524 4.086278 -1.662225
2008-06-10 06:29:33 51°15.111 2°53.707 19.8164 0.662524 4.086278 -1.662225
2008-06-10 06:29:38 51°15.119 2°53.683 19.8527 1.258044 8.143429 -1.662225
2008-06-10 06:29:43 51°15.124 2°53.658 19.8022 0.970096 6.15273 -1.662225
2008-06-10 06:29:48 51°15.131 2°53.634 19.8524 1.482699 9.728594 -1.662225
2008-06-10 06:29:53 51°15.137 2°53.609 19.8436 1.333846 8.675633 -1.662225
2008-06-10 06:29:58 51°15.143 2°53.585 19.8484 1.254538 8.1192 -1.662225
2008-06-10 06:30:03 51°15.148 2°53.56 19.8226 1.254538 8.1192 -1.662225
2008-06-10 06:30:08 51°15.154 2°53.536 19.8301 1.191739 7.681022 -1.662225
2008-06-10 06:30:13 51°15.16 2°53.511 19.8401 1.160909 7.466718 -1.662225
2008-06-10 06:30:18 51°15.165 2°53.487 19.7988 1.043073 6.65259 -1.662225
2008-06-10 06:30:23 51°15.171 2°53.462 19.8446 1.420078 9.284371 -1.662225
2008-06-10 06:30:28 51°15.176 2°53.438 19.823 1.312806 8.527689 -1.662225
2008-06-10 06:30:33 51°15.182 2°53.413 19.8574 1.177716 7.583477 -1.662225
2008-06-10 06:30:38 51°15.188 2°53.389 19.8416 1.177716 7.583477 -1.662225
2008-06-10 06:30:43 51°15.194 2°53.365 19.8545 1.397797 9.126716 -1.662225
2008-06-10 06:30:48 51°15.199 2°53.34 19.8605 1.303318 8.461047 -1.662225
2008-06-10 06:30:53 51°15.205 2°53.316 19.8644 1.111937 7.127549 -1.662225
2008-06-10 06:30:58 51°15.21 2°53.291 19.8337 1.286816 8.345419 -1.662225
2008-06-10 06:31:03 51°15.216 2°53.267 19.8624 1.228448 7.937041 -1.662225
2008-06-10 06:31:08 51°15.221 2°53.242 19.8563 1.228448 7.937041 -1.662225
2008-06-10 06:31:13 51°15.226 2°53.217 19.8591 1.368399 8.91926 -1.662225
2008-06-10 06:31:18 51°15.231 2°53.192 19.8647 1.15627 7.434649 -1.662225
2008-06-10 06:31:23 51°15.236 2°53.168 19.8666 1.20669 7.78529 -1.662225
2008-06-10 06:31:28 51°15.24 2°53.143 19.856 1.218858 7.870122 -1.662225
2008-06-10 06:31:33 51°15.245 2°53.118 19.86 1.218858 7.870122 -1.662225
2008-06-10 06:31:38 51°15.249 2°53.093 19.8278 1.098328 7.033383 -1.662225
2008-06-10 06:31:43 51°15.253 2°53.068 19.8456 0.870644 5.477128 -1.662225
2008-06-10 06:31:48 51°15.257 2°53.043 19.8519 1.375104 8.966573 -1.662225
2008-06-10 06:31:53 51°15.262 2°53.019 19.8404 1.294036 8.396056 -1.662225
2008-06-10 06:31:58 51°15.265 2°52.994 19.8352 1.124205 7.212685 -1.662225
2008-06-10 06:32:03 51°15.27 2°52.969 19.8584 1.124205 7.212685 -1.662225
2008-06-10 06:32:08 51°15.274 2°52.944 19.8563 1.069154 6.832536 -1.662225
2008-06-10 06:32:13 51°15.279 2°52.919 19.8511 1.2004 7.741897 -1.662225
2008-06-10 06:32:18 51°15.283 2°52.894 19.8661 1.238657 8.008628 -1.662225
2008-06-10 06:32:23 51°15.288 2°52.869 19.8278 1.146475 7.366836 -1.662225
2008-06-10 06:32:28 51°15.292 2°52.844 19.8346 0.865491 5.44251 -1.662225
2008-06-10 06:32:33 51°15.297 2°52.819 19.832 1.293314 8.391146 -1.662225
2008-06-10 06:32:38 51°15.302 2°52.795 19.8548 1.293314 8.391146 -1.662225
2008-06-10 06:32:43 51°15.307 2°52.77 19.8257 1.356641 8.836662 -1.662225
2008-06-10 06:32:48 51°15.313 2°52.745 19.8384 1.284032 8.326355 -1.662225
2008-06-10 06:32:53 51°15.318 2°52.721 19.8531 1.329102 8.643207 -1.662225
2008-06-10 06:32:58 51°15.324 2°52.696 19.865 1.481151 9.718841 -1.662225
2008-06-10 06:33:03 51°15.33 2°52.672 19.8748 1.455669 9.537589 -1.662225
2008-06-10 06:33:08 51°15.335 2°52.647 19.8546 1.455669 9.537589 -1.662225
2008-06-10 06:33:13 51°15.34 2°52.622 19.872 1.303008 8.459342 -1.662225
2008-06-10 06:33:18 51°15.346 2°52.598 19.8592 1.333846 8.676112 -1.662225
2008-06-10 06:33:23 51°15.351 2°52.573 19.8713 1.252785 8.107386 -1.662225
2008-06-10 06:33:28 51°15.356 2°52.548 19.8568 1.367471 8.913203 -1.662225
2008-06-10 06:33:33 51°15.362 2°52.524 19.8777 1.367471 8.913203 -1.662225
2008-06-10 06:33:38 51°15.367 2°52.499 19.8512 1.307237 8.489192 -1.662225
2008-06-10 06:33:43 51°15.372 2°52.474 19.8587 1.064308 6.799291 -1.662225
2008-06-10 06:33:48 51°15.376 2°52.449 19.8811 0.929694 5.878013 -1.662225
2008-06-10 06:33:53 51°15.38 2°52.423 19.8484 0.988648 6.279948 -1.662225
2008-06-10 06:33:58 51°15.385 2°52.398 19.8655 0.981949 6.234145 -1.662225
2008-06-10 06:34:03 51°15.389 2°52.373 19.8768 0.981949 6.234145 -1.662225
2008-06-10 06:34:08 51°15.394 2°52.348 19.8496 1.139361 7.317654 -1.662225
2008-06-10 06:34:13 51°15.399 2°52.323 19.8596 1.306412 8.483085 -1.662225
2008-06-10 06:34:18 51°15.403 2°52.298 19.8653 1.164827 7.494337 -1.662225
2008-06-10 06:34:23 51°15.408 2°52.273 19.8474 1.028229 6.551128 -1.662225
2008-06-10 06:34:28 51°15.413 2°52.248 19.8724 1.184934 7.634232 -1.662225
2008-06-10 06:34:33 51°15.418 2°52.223 19.8737 1.532945 10.087675 -1.662225
2008-06-10 06:34:38 51°15.422 2°52.198 19.8794 1.532945 10.087675 -1.662225
2008-06-10 06:34:43 51°15.427 2°52.173 19.884 1.32807 8.635951 -1.662225
2008-06-10 06:34:48 51°15.431 2°52.148 19.8583 1.086988 6.956002 -1.662225
2008-06-10 06:34:53 51°15.435 2°52.122 19.8689 1.119669 7.18182 -1.662225
2008-06-10 06:34:58 51°15.439 2°52.097 19.8723 1.040084 6.632902 -1.662225
2008-06-10 06:35:03 51°15.443 2°52.072 19.882 1.089153 6.970685 -1.662225
2008-06-10 06:35:08 51°15.446 2°52.047 19.8724 1.089153 6.970685 -1.662225
2008-06-10 06:35:13 51°15.45 2°52.021 19.8695 1.419253 9.279552 -1.662225
2008-06-10 06:35:18 51°15.454 2°51.996 19.8732 1.3192 8.573732 -1.662225
2008-06-10 06:35:23 51°15.457 2°51.97 19.8665 0.931756 5.892248 -1.662225
2008-06-10 06:35:28 51°15.461 2°51.945 19.8701 1.293829 8.395381 -1.662225
2008-06-10 06:35:33 51°15.465 2°51.92 19.8755 1.293829 8.395381 -1.662225
2008-06-10 06:35:38 51°15.469 2°51.895 19.8701 1.354887 8.82479 -1.662225
2008-06-10 06:35:43 51°15.473 2°51.869 19.8722 1.24701 8.06745 -1.662225
2008-06-10 06:35:48 51°15.477 2°51.844 19.8601 1.23247 7.965851 -1.662225
2008-06-10 06:35:53 51°15.48 2°51.819 19.8559 1.287332 8.34965 -1.662225
2008-06-10 06:35:58 51°15.484 2°51.794 19.8719 0.992462 6.306381 -1.662225
2008-06-10 06:36:03 51°15.488 2°51.768 19.8817 1.467636 9.622764 -1.662225
2008-06-10 06:36:08 51°15.491 2°51.743 19.8937 1.467636 9.622764 -1.662225
2008-06-10 06:36:13 51°15.494 2°51.717 19.8863 1.253403 8.112311 -1.662225
2008-06-10 06:36:18 51°15.497 2°51.692 19.9001 1.065752 6.80973 -1.662225
2008-06-10 06:36:23 51°15.5 2°51.666 19.8622 0.982464 6.238126 -1.662225
2008-06-10 06:36:28 51°15.502 2°51.641 19.8717 1.231542 7.959517 -1.662225
2008-06-10 06:36:33 51°15.504 2°51.615 19.8693 1.03462 6.59537 -1.662225
2008-06-10 06:36:38 51°15.506 2°51.59 19.8768 1.03462 6.59537 -1.662225
2008-06-10 06:36:43 51°15.508 2°51.564 19.872 1.36582 8.901888 -1.662225
2008-06-10 06:36:48 51°15.51 2°51.538 19.8804 1.164827 7.494888 -1.662225
2008-06-10 06:36:53 51°15.511 2°51.512 19.899 1.264025 8.186642 -1.662225
2008-06-10 06:36:58 51°15.512 2°51.487 19.8993 1.060804 6.775658 -1.662225
2008-06-10 06:37:03 51°15.513 2°51.461 19.8611 1.060804 6.775658 -1.662225
2008-06-10 06:37:08 51°15.513 2°51.435 19.8997 1.065442 6.8076 -1.662225
2008-06-10 06:37:13 51°15.513 2°51.409 19.8848 1.06637 6.813865 -1.662225
2008-06-10 06:37:18 51°15.513 2°51.383 19.8828 1.076473 6.883353 -1.662225
2008-06-10 06:37:23 51°15.513 2°51.357 19.8709 1.059051 6.763345 -1.662225
2008-06-10 06:37:28 51°15.513 2°51.332 19.8778 0.918049 5.799077 -1.662225
2008-06-10 06:37:33 51°15.513 2°51.306 19.8822 0.918049 5.799077 -1.662225
2008-06-10 06:37:38 51°15.513 2°51.28 19.8727 1.097297 7.027039 -1.662225
2008-06-10 06:37:43 51°15.513 2°51.254 19.8733 0.957212 6.065618 -1.662225
2008-06-10 06:37:48 51°15.512 2°51.229 19.8889 1.05132 6.710148 -1.662225
2008-06-10 06:37:53 51°15.513 2°51.203 19.8935 1.052866 6.721032 -1.662225
2008-06-10 06:37:58 51°15.513 2°51.177 19.8801 0.937836 5.933839 -1.662225
2008-06-10 06:38:03 51°15.513 2°51.151 19.8348 1.166374 7.505769 -1.662225
2008-06-10 06:38:08 51°15.514 2°51.125 19.8686 1.166374 7.505769 -1.662225
2008-06-10 06:38:13 51°15.514 2°51.099 19.8763 1.501888 9.866799 -1.662225
2008-06-10 06:38:18 51°15.516 2°51.073 19.8857 1.116164 7.157832 -1.662225
2008-06-10 06:38:23 51°15.517 2°51.047 19.8751 1.449788 9.496724 -1.662225
2008-06-10 06:38:28 51°15.518 2°51.021 19.8845 1.409866 9.213946 -1.662225
2008-06-10 06:38:33 51°15.519 2°50.995 19.8746 1.474961 9.675715 -1.662225
2008-06-10 06:38:38 51°15.521 2°50.969 19.8896 1.474961 9.675715 -1.662225
2008-06-10 06:38:43 51°15.522 2°50.944 19.8893 1.574941 10.389165 -1.662225
2008-06-10 06:38:48 51°15.524 2°50.918 19.8922 1.200607 7.744473 -1.662225
2008-06-10 06:38:53 51°15.525 2°50.892 19.8901 1.455875 9.540283 -1.662225
2008-06-10 06:38:58 51°15.526 2°50.867 19.8652 1.42472 9.319478 -1.662225
2008-06-10 06:39:03 51°15.528 2°50.841 19.9016 1.42472 9.319478 -1.662225
2008-06-10 06:39:08 51°15.529 2°50.815 19.8875 1.348286 8.779402 -1.662225
2008-06-10 06:39:13 51°15.53 2°50.79 19.8858 1.446075 9.471066 -1.662225
2008-06-10 06:39:18 51°15.531 2°50.764 19.8972 1.400891 9.150787 -1.662225
2008-06-10 06:39:23 51°15.532 2°50.738 19.8899 1.366955 8.91104 -1.662225
2008-06-10 06:39:28 51°15.533 2°50.713 19.8919 1.43906 9.420953 -1.662225
2008-06-10 06:39:33 51°15.533 2°50.687 19.8963 1.497349 9.835376 -1.662225
2008-06-10 06:39:38 51°15.533 2°50.661 19.891 1.497349 9.835376 -1.662225
2008-06-10 06:39:43 51°15.534 2°50.636 19.887 1.544707 10.173159 -1.662225
2008-06-10 06:39:48 51°15.534 2°50.61 19.8703 1.343129 8.742909 -1.662225
2008-06-10 06:39:53 51°15.534 2°50.585 19.8912 1.234944 7.984018 -1.662225
2008-06-10 06:39:58 51°15.535 2°50.559 19.8847 1.356125 8.834653 -1.662225
2008-06-10 06:40:03 51°15.535 2°50.533 19.8982 1.464231 9.599813 -1.662225
2008-06-10 06:40:08 51°15.535 2°50.508 19.9015 1.464231 9.599813 -1.662225
2008-06-10 06:40:13 51°15.535 2°50.482 19.9098 1.510142 9.926519 -1.662225
2008-06-10 06:40:18 51°15.535 2°50.457 19.8996 1.284032 8.327734 -1.662225
2008-06-10 06:40:23 51°15.535 2°50.431 19.9011 1.36087 8.867947 -1.662225
2008-06-10 06:40:28 51°15.536 2°50.406 19.911 1.164003 7.489848 -1.662225
2008-06-10 06:40:33 51°15.536 2°50.38 19.8885 1.164003 7.489848 -1.662225
2008-06-10 06:40:38 51°15.536 2°50.355 19.9012 1.236182 7.992809 -1.662225
2008-06-10 06:40:43 51°15.536 2°50.329 19.9097 1.387069 9.053067 -1.662225
2008-06-10 06:40:48 51°15.536 2°50.303 19.9104 1.26021 8.160984 -1.662225
2008-06-10 06:40:53 51°15.535 2°50.278 19.9155 1.468255 9.62858 -1.662225
2008-06-10 06:40:58 51°15.535 2°50.252 19.921 1.244741 8.052923 -1.662225
2008-06-10 06:41:03 51°15.534 2°50.226 19.9091 1.244741 8.052923 -1.662225
2008-06-10 06:41:08 51°15.533 2°50.201 19.9024 1.21164 7.821658 -1.662225
2008-06-10 06:41:13 51°15.532 2°50.175 19.905 0.920625 5.817329 -1.662225
2008-06-10 06:41:18 51°15.531 2°50.15 19.9039 1.340035 8.721278 -1.662225
2008-06-10 06:41:23 51°15.53 2°50.124 19.9136 0.866316 5.44928 -1.662225
2008-06-10 06:41:28 51°15.529 2°50.098 19.8951 1.195451 7.708705 -1.662225
2008-06-10 06:41:33 51°15.528 2°50.073 19.9269 1.437615 9.411057 -1.662225
2008-06-10 06:41:38 51°15.527 2°50.047 19.9137 1.437615 9.411057 -1.662225
2008-06-10 06:41:43 51°15.527 2°50.021 19.9049 1.129669 7.251982 -1.662225
2008-06-10 06:41:48 51°15.526 2°49.995 19.9084 1.339209 8.715628 -1.662225
2008-06-10 06:41:53 51°15.525 2°49.969 19.9034 0.761525 4.745058 -1.662225
2008-06-10 06:41:58 51°15.524 2°49.943 19.8572 1.640779 10.861846 -1.662225
2008-06-10 06:42:03 51°15.525 2°49.917 19.9478 0.680963 4.209425 -1.662225
2008-06-10 06:42:08 51°15.523 2°49.891 19.8537 0.680963 4.209425 -1.662225
2008-06-10 06:42:13 51°15.523 2°49.865 19.9014 1.61436 10.671889 -1.662225
2008-06-10 06:42:18 51°15.522 2°49.839 19.905 0.883525 5.565891 -1.662225
2008-06-10 06:42:23 51°15.522 2°49.813 19.8854 0.975661 6.19244 -1.697049
2008-06-10 06:42:28 51°15.521 2°49.787 19.9124 1.187305 7.652139 -1.662225
2008-06-10 06:42:33 51°15.52 2°49.762 19.9044 1.187305 7.652139 -1.662225
2008-06-10 06:42:38 51°15.519 2°49.736 19.839 0.827777 5.189547 -1.662225
2008-06-10 06:42:43 51°15.519 2°49.71 19.7763 0.95546 6.054451 -1.697049
2008-06-10 06:42:48 51°15.521 2°49.685 19.8202 1.337044 8.700538 -1.662225
2008-06-10 06:42:53 51°15.524 2°49.659 19.8093 1.695273 11.255095 -1.662225
2008-06-10 06:42:58 51°15.528 2°49.634 19.8363 1.577933 10.411738 -1.697049
2008-06-10 06:43:03 51°15.532 2°49.609 19.8117 1.584021 10.455532 -1.662225
2008-06-10 06:43:08 51°15.537 2°49.584 19.8163 1.584021 10.455532 -1.662225
2008-06-10 06:43:13 51°15.542 2°49.559 19.8012 1.11637 7.160181 -1.662225
2008-06-10 06:43:18 51°15.548 2°49.534 19.8205 1.433386 9.381239 -1.662225
2008-06-10 06:43:23 51°15.554 2°49.51 19.802 1.357156 8.842576 -1.662225
2008-06-10 06:43:28 51°15.56 2°49.486 19.822 1.49219 9.799911 -1.697049
2008-06-10 06:43:33 51°15.567 2°49.462 19.8133 1.419666 9.284868 -1.662225
2008-06-10 06:43:38 51°15.574 2°49.438 19.8356 1.419666 9.284868 -1.662225
2008-06-10 06:43:43 51°15.58 2°49.414 19.8446 1.47558 9.6819 -1.662225
2008-06-10 06:43:48 51°15.586 2°49.39 19.8442 1.557296 10.264638 -1.662225
2008-06-10 06:43:53 51°15.593 2°49.366 19.8518 1.474239 9.672362 -1.697049
2008-06-10 06:43:58 51°15.598 2°49.341 19.8431 1.179675 7.599614 -1.662225
2008-06-10 06:44:03 51°15.603 2°49.316 19.8545 1.179675 7.599614 -1.662225
2008-06-10 06:44:08 51°15.608 2°49.291 19.8412 1.158229 7.450301 -1.697049
2008-06-10 06:44:13 51°15.613 2°49.266 19.8517 1.020602 6.500225 -1.662225
2008-06-10 06:44:18 51°15.618 2°49.241 19.8313 1.160291 7.464345 -1.662225
2008-06-10 06:44:23 51°15.623 2°49.216 19.8487 1.310228 8.511768 -1.662225
2008-06-10 06:44:28 51°15.627 2°49.191 19.837 1.047403 6.684315 -1.697049
2008-06-10 06:44:33 51°15.632 2°49.166 19.8489 1.047403 6.684315 -1.697049
2008-06-10 06:44:38 51°15.637 2°49.14 19.8482 0.998543 6.349165 -1.662225
2008-06-10 06:44:43 51°15.642 2°49.115 19.8521 1.413992 9.244175 -1.662225
2008-06-10 06:44:48 51°15.647 2°49.09 19.8534 1.468565 9.631667 -1.662225
2008-06-10 06:44:53 51°15.652 2°49.064 19.8522 1.307443 8.493142 -1.662225
2008-06-10 06:44:58 51°15.657 2°49.039 19.8426 1.450923 9.506704 -1.662225
2008-06-10 06:45:03 51°15.662 2°49.014 19.8506 1.434624 9.391054 -1.662225
2008-06-10 06:45:08 51°15.667 2°48.989 19.8578 1.434624 9.391054 -1.662225
2008-06-10 06:45:13 51°15.672 2°48.963 19.8412 1.328792 8.643257 -1.662225
2008-06-10 06:45:18 51°15.677 2°48.938 19.8553 1.235151 7.986634 -1.697049
2008-06-10 06:45:23 51°15.682 2°48.912 19.8545 1.466501 9.617179 -1.662225
2008-06-10 06:45:28 51°15.687 2°48.887 19.8518 1.34612 8.765271 -1.662225
2008-06-10 06:45:33 51°15.692 2°48.862 19.8638 1.339106 8.715865 -1.662225
2008-06-10 06:45:38 51°15.696 2°48.836 19.8592 1.339106 8.715865 -1.662225
2008-06-10 06:45:43 51°15.701 2°48.811 19.8644 1.311156 8.519074 -1.662225
2008-06-10 06:45:48 51°15.706 2°48.786 19.8613 1.440091 9.429659 -1.662225
2008-06-10 06:45:53 51°15.711 2°48.76 19.8707 1.187202 7.652407 -1.662225
2008-06-10 06:45:58 51°15.715 2°48.735 19.8582 1.283723 8.32679 -1.662225
2008-06-10 06:46:03 51°15.719 2°48.709 19.8686 1.283723 8.32679 -1.662225
2008-06-10 06:46:08 51°15.723 2°48.683 19.8749 1.35891 8.855594 -1.662225
2008-06-10 06:46:13 51°15.727 2°48.658 19.8785 1.315797 8.552011 -1.662225
2008-06-10 06:46:18 51°15.73 2°48.632 19.8666 1.38119 9.012691 -1.662225
2008-06-10 06:46:23 51°15.734 2°48.606 19.8726 1.143279 7.346973 -1.662225
2008-06-10 06:46:28 51°15.737 2°48.58 19.8754 1.406668 9.192671 -1.662225
2008-06-10 06:46:33 51°15.74 2°48.554 19.8651 1.210093 7.811736 -1.662225
2008-06-10 06:46:38 51°15.743 2°48.528 19.8637 1.210093 7.811736 -1.662225
2008-06-10 06:46:43 51°15.746 2°48.503 19.8651 0.902281 5.693414 -1.662225
2008-06-10 06:46:48 51°15.749 2°48.477 19.8774 1.25691 8.138637 -1.662225
2008-06-10 06:46:53 51°15.752 2°48.451 19.8914 1.291251 8.379297 -1.697049
2008-06-10 06:46:58 51°15.755 2°48.425 19.8768 1.242266 8.036361 -1.662225
2008-06-10 06:47:03 51°15.758 2°48.399 19.8728 0.885277 5.578163 -1.662225
2008-06-10 06:47:08 51°15.761 2°48.373 19.8656 0.885277 5.578163 -1.662225
2008-06-10 06:47:13 51°15.764 2°48.348 19.8901 1.430188 9.35943 -1.662225
2008-06-10 06:47:18 51°15.766 2°48.322 19.8867 0.79295 4.956028 -1.662225
2008-06-10 06:47:23 51°15.768 2°48.296 19.8886 1.061525 6.781997 -1.697049
2008-06-10 06:47:28 51°15.77 2°48.27 19.8994 0.707232 4.383938 -1.662225
2008-06-10 06:47:33 51°15.771 2°48.243 19.8835 0.707232 4.383938 -1.662225
2008-06-10 06:47:38 51°15.772 2°48.217 19.903 1.360457 8.866506 -1.697049
2008-06-10 06:47:43 51°15.772 2°48.191 19.9101 1.262375 8.177348 -1.662225
2008-06-10 06:47:48 51°15.771 2°48.165 19.867 0.656034 4.045321 -1.662225
2008-06-10 06:47:53 51°15.771 2°48.14 19.8669 0.904754 5.710404 -1.662225
2008-06-10 06:47:58 51°15.769 2°48.114 19.8758 0.855805 5.379076 -1.662225
2008-06-10 06:48:03 51°15.767 2°48.088 19.867 0.855805 5.379076 -1.662225
2008-06-10 06:48:08 51°15.766 2°48.062 19.8849 1.20999 7.811017 -1.662225
2008-06-10 06:48:13 51°15.763 2°48.037 19.8746 0.850756 5.344895 -1.662225
2008-06-10 06:48:18 51°15.761 2°48.011 19.8663 1.150187 7.394891 -1.662225
2008-06-10 06:48:23 51°15.759 2°47.985 19.8644 1.025962 6.537487 -1.662225
2008-06-10 06:48:28 51°15.757 2°47.959 19.8664 1.309506 8.507635 -1.662225
2008-06-10 06:48:33 51°15.756 2°47.933 19.8779 1.254435 8.121617 -1.662225
2008-06-10 06:48:38 51°15.754 2°47.907 19.8565 1.254435 8.121617 -1.662225
2008-06-10 06:48:43 51°15.753 2°47.881 19.8401 1.603009 10.592406 -1.662225
2008-06-10 06:48:48 51°15.752 2°47.856 19.8692 1.213702 7.837482 -1.662225
2008-06-10 06:48:53 51°15.75 2°47.83 19.8497 1.517571 9.981317 -1.662225
2008-06-10 06:48:58 51°15.75 2°47.804 19.8672 1.548009 10.198816 -1.662225
2008-06-10 06:49:03 51°15.748 2°47.778 19.8678 1.602183 10.586875 -1.662225
2008-06-10 06:49:08 51°15.748 2°47.752 19.8817 1.602183 10.586875 -1.662225
2008-06-10 06:49:13 51°15.747 2°47.726 19.8759 1.534596 10.103366 -1.662225
2008-06-10 06:49:18 51°15.746 2°47.7 19.8816 1.416055 9.260148 -1.697049
2008-06-10 06:49:23 51°15.744 2°47.675 19.8805 1.577521 10.410317 -1.697049
2008-06-10 06:49:28 51°15.743 2°47.649 19.8879 1.532738 10.090105 -1.662225
2008-06-10 06:49:33 51°15.741 2°47.623 19.8931 1.532738 10.090105 -1.662225
2008-06-10 06:49:38 51°15.74 2°47.598 19.8875 1.551414 10.22353 -1.662225
2008-06-10 06:49:43 51°15.738 2°47.572 19.8693 1.193904 7.699635 -1.662225
2008-06-10 06:49:48 51°15.736 2°47.547 19.8818 1.31951 8.578591 -1.662225
2008-06-10 06:49:53 51°15.734 2°47.521 19.8705 1.272688 8.249889 -1.662225
2008-06-10 06:49:58 51°15.733 2°47.495 19.8864 1.488167 9.771809 -1.662225
2008-06-10 06:50:03 51°15.731 2°47.47 19.8699 1.488167 9.771809 -1.662225
2008-06-10 06:50:08 51°15.731 2°47.444 19.8925 1.461549 9.582698 -1.662225
2008-06-10 06:50:13 51°15.729 2°47.418 19.8834 1.481461 9.724445 -1.662225
2008-06-10 06:50:18 51°15.729 2°47.393 19.8858 1.54543 10.180757 -1.662225
2008-06-10 06:50:23 51°15.727 2°47.367 19.8894 1.573806 10.38391 -1.697049
2008-06-10 06:50:28 51°15.727 2°47.342 19.8911 1.594547 10.532506 -1.662225
2008-06-10 06:50:33 51°15.726 2°47.316 19.9033 1.610026 10.64373 -1.662225
2008-06-10 06:50:38 51°15.725 2°47.291 19.8892 1.610026 10.64373 -1.662225
2008-06-10 06:50:43 51°15.724 2°47.265 19.8963 1.409866 9.216831 -1.697049
2008-06-10 06:50:48 51°15.723 2°47.24 19.8983 1.609923 10.643186 -1.697049
2008-06-10 06:50:53 51°15.722 2°47.214 19.9021 1.54543 10.18132 -1.662225
2008-06-10 06:50:58 51°15.72 2°47.188 19.8994 1.58237 10.445438 -1.662225
2008-06-10 06:51:03 51°15.719 2°47.163 19.8886 1.415849 9.259199 -1.662225
2008-06-10 06:51:08 51°15.718 2°47.137 19.898 1.415849 9.259199 -1.662225
2008-06-10 06:51:13 51°15.717 2°47.112 19.9155 1.623751 10.742273 -1.697049
2008-06-10 06:51:18 51°15.715 2°47.087 19.8908 1.451439 9.511592 -1.662225
2008-06-10 06:51:23 51°15.714 2°47.061 19.8808 1.415952 9.259929 -1.697049
2008-06-10 06:51:28 51°15.712 2°47.036 19.9073 1.421729 9.300854 -1.662225
2008-06-10 06:51:33 51°15.71 2°47.01 19.9127 1.421729 9.300854 -1.662225
2008-06-10 06:51:38 51°15.708 2°46.985 19.9146 1.555439 10.252869 -1.697049
2008-06-10 06:51:43 51°15.706 2°46.96 19.8877 1.331577 8.664291 -1.662225
2008-06-10 06:51:48 51°15.704 2°46.934 19.888 1.190605 7.677082 -1.662225
2008-06-10 06:51:53 51°15.702 2°46.909 19.8982 1.548628 10.203804 -1.697049
2008-06-10 06:51:58 51°15.701 2°46.884 19.9066 1.561217 10.293819 -1.662225
2008-06-10 06:52:03 51°15.699 2°46.858 19.8847 1.275988 8.273475 -1.697049
2008-06-10 06:52:08 51°15.698 2°46.832 19.9185 1.275988 8.273475 -1.697049
2008-06-10 06:52:13 51°15.697 2°46.807 19.903 1.544707 10.176158 -1.662225
2008-06-10 06:52:18 51°15.696 2°46.781 19.9081 1.567614 10.339974 -1.662225
2008-06-10 06:52:23 51°15.694 2°46.756 19.9086 1.572361 10.37395 -1.697049
2008-06-10 06:52:28 51°15.693 2°46.73 19.9291 1.505293 9.895062 -1.662225
2008-06-10 06:52:33 51°15.691 2°46.704 19.8944 1.41131 9.227396 -1.662225
2008-06-10 06:52:38 51°15.69 2°46.679 19.9298 1.41131 9.227396 -1.662225
2008-06-10 06:52:43 51°15.689 2°46.653 19.9033 1.534596 10.104297 -1.662225
2008-06-10 06:52:48 51°15.688 2°46.628 19.9342 1.548525 10.203631 -1.662225
2008-06-10 06:52:53 51°15.686 2°46.603 19.9255 1.331165 8.661706 -1.662225
2008-06-10 06:52:58 51°15.684 2°46.577 19.9262 1.249691 8.08962 -1.662225
2008-06-10 06:53:03 51°15.683 2°46.552 19.932 1.458661 9.563058 -1.662225
2008-06-10 06:53:08 51°15.681 2°46.527 19.9256 1.458661 9.563058 -1.662225
2008-06-10 06:53:13 51°15.678 2°46.502 19.9346 1.124308 7.216716 -1.662225
2008-06-10 06:53:18 51°15.676 2°46.477 19.9266 1.352412 8.811073 -1.662225
2008-06-10 06:53:23 51°15.674 2°46.452 19.9163 1.254332 8.121942 -1.662225
2008-06-10 06:53:28 51°15.671 2°46.427 19.9217 1.476405 9.689019 -1.662225
2008-06-10 06:53:33 51°15.669 2°46.402 19.9239 1.476405 9.689019 -1.662225
2008-06-10 06:53:38 51°15.666 2°46.377 19.9332 1.439885 9.429585 -1.662225
2008-06-10 06:53:43 51°15.664 2°46.352 19.9309 1.272275 8.247757 -1.662225
2008-06-10 06:53:48 51°15.662 2°46.327 19.9265 1.560804 10.291435 -1.662225
2008-06-10 06:53:53 51°15.66 2°46.302 19.9255 0.864049 5.435558 -1.662225
2008-06-10 06:53:58 51°15.658 2°46.277 19.8846 1.561011 10.292911 -1.662225
2008-06-10 06:54:03 51°15.656 2°46.252 19.9214 1.631595 10.799419 -1.662225
2008-06-10 06:54:08 51°15.655 2°46.227 19.9044 1.631595 10.799419 -1.662225
2008-06-10 06:54:13 51°15.654 2°46.202 19.9273 1.562558 10.304364 -1.662225
2008-06-10 06:54:18 51°15.653 2°46.176 19.9165 1.58299 10.450836 -1.697049
2008-06-10 06:54:23 51°15.651 2°46.152 19.9308 1.629531 10.784984 -1.662225
2008-06-10 06:54:28 51°15.65 2°46.126 19.9372 1.649965 10.932125 -1.662225
2008-06-10 06:54:33 51°15.649 2°46.101 19.9216 1.59207 10.516303 -1.662225
2008-06-10 06:54:38 51°15.648 2°46.076 19.935 1.59207 10.516303 -1.662225
2008-06-10 06:54:43 51°15.647 2°46.051 19.9268 1.522627 10.019412 -1.662225
2008-06-10 06:54:48 51°15.646 2°46.026 19.9265 1.640263 10.86214 -1.662225
2008-06-10 06:54:53 51°15.645 2°46 19.9476 1.656776 10.980948 -1.697049
2008-06-10 06:54:58 51°15.644 2°45.975 19.9491 1.577933 10.414808 -1.662225
2008-06-10 06:55:03 51°15.642 2°45.95 19.9527 1.577933 10.414808 -1.662225
2008-06-10 06:55:08 51°15.641 2°45.925 19.9498 1.56163 10.2981 -1.662225
2008-06-10 06:55:13 51°15.639 2°45.9 19.9396 1.555232 10.252338 -1.662225
2008-06-10 06:55:18 51°15.637 2°45.875 19.9477 1.536453 10.117934 -1.662225
2008-06-10 06:55:23 51°15.635 2°45.85 19.9533 1.487238 9.766999 -1.662225
2008-06-10 06:55:28 51°15.633 2°45.825 19.9522 1.377064 8.9857 -1.662225
2008-06-10 06:55:33 51°15.631 2°45.8 19.9459 1.537072 10.122356 -1.662225
2008-06-10 06:55:38 51°15.629 2°45.775 19.9546 1.537072 10.122356 -1.662225
2008-06-10 06:55:43 51°15.627 2°45.75 19.9495 1.512309 9.94581 -1.662225
2008-06-10 06:55:48 51°15.624 2°45.725 19.9466 1.451336 9.511911 -1.697049
2008-06-10 06:55:53 51°15.622 2°45.7 19.9639 1.503436 9.882555 -1.697049
2008-06-10 06:55:58 51°15.62 2°45.675 19.9614 1.581235 10.438654 -1.662225
2008-06-10 06:56:03 51°15.618 2°45.65 19.9555 1.510968 9.936246 -1.697049
2008-06-10 06:56:08 51°15.616 2°45.625 19.96 1.510968 9.936246 -1.697049
2008-06-10 06:56:13 51°15.613 2°45.6 19.9423 1.407081 9.198301 -1.662225
2008-06-10 06:56:18 51°15.611 2°45.575 19.963 1.279804 8.301297 -1.697049
2008-06-10 06:56:23 51°15.609 2°45.55 19.9576 1.506016 9.900939 -1.662225
2008-06-10 06:56:28 51°15.607 2°45.525 19.956 1.522833 10.0207 -1.697049
2008-06-10 06:56:33 51°15.605 2°45.499 19.9636 1.43483 9.394766 -1.662225
2008-06-10 06:56:38 51°15.603 2°45.474 19.9553 1.43483 9.394766 -1.662225
2008-06-10 06:56:43 51°15.601 2°45.449 19.9696 1.381809 9.019388 -1.662225
2008-06-10 06:56:48 51°15.599 2°45.424 19.9676 1.293211 8.395366 -1.662225
2008-06-10 06:56:53 51°15.597 2°45.399 19.9765 1.532532 10.090119 -1.662225
2008-06-10 06:56:58 51°15.595 2°45.374 19.9581 1.251444 8.102781 -1.662225
2008-06-10 06:57:03 51°15.594 2°45.349 19.9466 1.251444 8.102781 -1.662225
2008-06-10 06:57:08 51°15.592 2°45.324 19.9529 1.18215 7.618931 -1.697049
2008-06-10 06:57:13 51°15.591 2°45.298 19.9786 1.626331 10.761996 -1.662225
2008-06-10 06:57:18 51°15.589 2°45.273 19.9333 1.579997 10.429975 -1.662225
2008-06-10 06:57:23 51°15.589 2°45.248 19.9713 1.636239 10.833599 -1.662225
2008-06-10 06:57:28 51°15.587 2°45.222 19.9669 1.47135 9.654491 -1.662225
2008-06-10 06:57:33 51°15.586 2°45.197 19.9803 1.04699 6.683937 -1.697049
2008-06-10 06:57:38 51°15.584 2°45.172 19.9607 1.04699 6.683937 -1.697049
2008-06-10 06:57:43 51°15.583 2°45.147 19.9841 1.186377 7.648495 -1.662225
2008-06-10 06:57:48 51°15.581 2°45.122 19.9837 1.327658 8.637659 -1.662225
2008-06-10 06:57:53 51°15.579 2°45.096 19.9795 1.311053 8.520859 -1.662225
2008-06-10 06:57:58 51°15.577 2°45.071 19.9812 1.001326 6.370446 -1.662225
2008-06-10 06:58:03 51°15.575 2°45.046 19.9865 1.372009 8.950334 -1.662225
2008-06-10 06:58:08 51°15.573 2°45.021 19.9869 1.372009 8.950334 -1.662225
2008-06-10 06:58:13 51°15.571 2°44.996 19.9847 1.282691 8.321856 -1.662225
2008-06-10 06:58:18 51°15.57 2°44.971 19.9803 1.39625 9.121823 -1.662225
2008-06-10 06:58:23 51°15.567 2°44.946 19.9813 1.323635 8.609352 -1.662225
2008-06-10 06:58:28 51°15.566 2°44.921 19.9496 1.251135 8.100467 -1.662225
2008-06-10 06:58:33 51°15.564 2°44.896 19.9921 1.251135 8.100467 -1.662225
2008-06-10 06:58:38 51°15.561 2°44.871 19.9753 1.009057 6.423309 -1.662225
2008-06-10 06:58:43 51°15.56 2°44.846 19.9962 1.507873 9.91436 -1.662225
2008-06-10 06:58:48 51°15.558 2°44.821 19.9633 1.495698 9.827785 -1.662225
2008-06-10 06:58:53 51°15.556 2°44.796 19.9856 1.268769 8.224096 -1.662225
2008-06-10 06:58:58 51°15.555 2°44.771 19.9913 1.515301 9.9677 -1.662225
2008-06-10 06:59:03 51°15.553 2°44.745 19.9811 1.169983 7.534999 -1.662225
2008-06-10 06:59:08 51°15.552 2°44.72 19.9856 1.169983 7.534999 -1.662225
2008-06-10 06:59:13 51°15.55 2°44.695 19.9924 1.13101 7.264205 -1.662225
2008-06-10 06:59:18 51°15.548 2°44.67 19.9867 1.154311 7.425835 -1.697049
2008-06-10 06:59:23 51°15.546 2°44.645 19.9871 1.299296 8.438402 -1.662225
2008-06-10 06:59:28 51°15.544 2°44.62 19.9851 1.188749 7.665288 -1.662225
2008-06-10 06:59:33 51°15.542 2°44.595 19.9707 1.180912 7.610601 -1.697049
2008-06-10 06:59:38 51°15.541 2°44.57 19.9979 1.180912 7.610601 -1.697049
2008-06-10 06:59:43 51°15.539 2°44.545 19.9951 1.513754 9.956478 -1.662225
2008-06-10 06:59:48 51°15.537 2°44.52 19.9805 1.087813 6.965535 -1.662225
2008-06-10 06:59:53 51°15.535 2°44.495 19.9799 1.380261 9.008787 -1.697049
2008-06-10 06:59:58 51°15.534 2°44.469 20.0023 1.448654 9.49339 -1.662225
2008-06-10 07:00:03 51°15.533 2°44.444 19.9697 1.468977 9.637973 -1.697049
2008-06-10 07:00:08 51°15.532 2°44.418 19.9727 1.468977 9.637973 -1.697049
2008-06-10 07:00:13 51°15.531 2°44.393 20.0031 1.255878 8.134265 -1.662225
2008-06-10 07:00:18 51°15.53 2°44.368 19.9998 1.586395 10.476202 -1.662225
2008-06-10 07:00:23 51°15.529 2°44.342 20.0103 1.562352 10.304217 -1.662225
2008-06-10 07:00:28 51°15.528 2°44.317 19.9992 1.636239 10.834199 -1.662225
2008-06-10 07:00:33 51°15.528 2°44.291 20.0089 1.636239 10.834199 -1.662225
2008-06-10 07:00:38 51°15.526 2°44.266 20.0049 1.51592 9.972667 -1.662225
2008-06-10 07:00:43 51°15.525 2°44.24 20.01 1.641192 10.870222 -1.662225
2008-06-10 07:00:48 51°15.525 2°44.214 19.9952 1.439885 9.43167 -1.662225
2008-06-10 07:00:53 51°15.524 2°44.189 20.016 1.629943 10.789343 -1.662225
2008-06-10 07:00:58 51°15.523 2°44.163 19.9998 1.481873 9.730249 -1.662225
2008-06-10 07:01:03 51°15.522 2°44.138 20.0115 1.516849 9.979476 -1.662225
2008-06-10 07:01:08 51°15.521 2°44.112 20.0239 1.516849 9.979476 -1.662225
2008-06-10 07:01:13 51°15.519 2°44.087 20.0247 1.574322 10.390285 -1.662225
2008-06-10 07:01:18 51°15.518 2°44.061 20.0229 1.520667 10.006714 -1.697049
2008-06-10 07:01:23 51°15.516 2°44.036 20.0312 1.457113 9.554177 -1.697049
2008-06-10 07:01:28 51°15.513 2°44.01 20.0235 1.382737 9.026946 -1.662225
2008-06-10 07:01:33 51°15.511 2°43.985 20.0229 1.362623 8.884731 -1.697049
2008-06-10 07:01:38 51°15.509 2°43.96 20.0288 1.362623 8.884731 -1.697049
2008-06-10 07:01:43 51°15.506 2°43.935 20 1.348905 8.788131 -1.662225
2008-06-10 07:01:48 51°15.504 2°43.909 20.0392 1.22257 7.901689 -1.662225
2008-06-10 07:01:53 51°15.501 2°43.884 20.0184 1.426474 9.336719 -1.662225
2008-06-10 07:01:58 51°15.499 2°43.859 20.0276 1.442464 9.449973 -1.662225
2008-06-10 07:02:03 51°15.496 2°43.833 20.0265 1.289911 8.373126 -1.697049
2008-06-10 07:02:08 51°15.494 2°43.808 20.0377 1.289911 8.373126 -1.697049
2008-06-10 07:02:13 51°15.492 2°43.783 20.033 1.299605 8.441197 -1.662225
2008-06-10 07:02:18 51°15.49 2°43.757 20.0458 1.32807 8.641359 -1.662225
2008-06-10 07:02:23 51°15.487 2°43.732 20.0281 1.36087 8.872684 -1.697049
2008-06-10 07:02:28 51°15.485 2°43.706 20.0271 1.403986 9.17741 -1.697049
2008-06-10 07:02:33 51°15.483 2°43.681 20.0385 1.403986 9.17741 -1.697049
2008-06-10 07:02:38 51°15.48 2°43.655 20.0106 1.276297 8.277777 -1.697049
2008-06-10 07:02:43 51°15.478 2°43.629 20.0379 1.446075 9.475778 -1.662225
2008-06-10 07:02:48 51°15.476 2°43.604 20.0241 1.107504 7.102127 -1.662225
2008-06-10 07:02:53 51°15.474 2°43.578 20.0144 1.459692 9.57268 -1.697049
2008-06-10 07:02:58 51°15.471 2°43.553 20.039 1.23412 7.982515 -1.662225
2008-06-10 07:03:03 51°15.469 2°43.527 20.0173 1.149568 7.393727 -1.662225
2008-06-10 07:03:08 51°15.467 2°43.501 20.0502 1.149568 7.393727 -1.662225
2008-06-10 07:03:13 51°15.465 2°43.475 20.0464 1.375516 8.976094 -1.662225
2008-06-10 07:03:18 51°15.462 2°43.45 20.0245 1.224839 7.917676 -1.662225
2008-06-10 07:03:23 51°15.46 2°43.424 20.0115 1.330443 8.658059 -1.662225
2008-06-10 07:03:28 51°15.458 2°43.398 20.023 0.990504 6.296918 -1.662225
2008-06-10 07:03:33 51°15.456 2°43.373 20.0116 1.333846 8.682025 -1.662225
2008-06-10 07:03:38 51°15.455 2°43.347 20.0495 1.333846 8.682025 -1.662225
2008-06-10 07:03:43 51°15.453 2°43.321 20.0239 1.443083 9.454541 -1.662225
2008-06-10 07:03:48 51°15.452 2°43.295 20.0421 1.472175 9.661429 -1.697049
2008-06-10 07:03:53 51°15.451 2°43.269 20.0522 1.532429 10.091056 -1.662225
2008-06-10 07:03:58 51°15.45 2°43.243 20.0534 1.620036 10.718554 -1.662225
2008-06-10 07:04:03 51°15.448 2°43.217 20.0645 1.620036 10.718554 -1.662225
2008-06-10 07:04:08 51°15.446 2°43.191 20.0562 1.38119 9.016842 -1.662225
2008-06-10 07:04:13 51°15.444 2°43.166 20.0563 1.350039 8.796778 -1.662225
2008-06-10 07:04:18 51°15.442 2°43.14 20.0427 1.298471 8.433694 -1.662225
2008-06-10 07:04:23 51°15.44 2°43.115 20.048 1.353237 8.819165 -1.662225
2008-06-10 07:04:28 51°15.437 2°43.089 20.0247 1.243194 8.046107 -1.662225
2008-06-10 07:04:33 51°15.434 2°43.063 20.0508 1.266397 8.208687 -1.697049
2008-06-10 07:04:38 51°15.432 2°43.038 20.0492 1.266397 8.208687 -1.697049
2008-06-10 07:04:43 51°15.429 2°43.012 20.0607 1.257013 8.142956 -1.662225
2008-06-10 07:04:48 51°15.426 2°42.987 20.0221 1.244225 8.053616 -1.662225
2008-06-10 07:04:53 51°15.423 2°42.961 20.0431 1.405843 9.191232 -1.662225
2008-06-10 07:04:58 51°15.421 2°42.936 20.0488 1.422348 9.308154 -1.662225
2008-06-10 07:05:03 51°15.418 2°42.91 20.0478 1.194214 7.704483 -1.662225
2008-06-10 07:05:08 51°15.415 2°42.885 20.0288 1.194214 7.704483 -1.662225
2008-06-10 07:05:13 51°15.413 2°42.859 20.06 1.265057 8.199294 -1.662225
2008-06-10 07:05:18 51°15.41 2°42.834 20.0491 1.503849 9.887136 -1.662225
2008-06-10 07:05:23 51°15.407 2°42.808 20.0682 1.324461 8.616587 -1.662225
2008-06-10 07:05:28 51°15.404 2°42.783 20.035 1.397797 9.134115 -1.662225
2008-06-10 07:05:33 51°15.401 2°42.757 20.0471 1.497659 9.843201 -1.662225
2008-06-10 07:05:38 51°15.398 2°42.731 20.0661 1.497659 9.843201 -1.662225
2008-06-10 07:05:43 51°15.395 2°42.706 20.058 1.600016 10.575427 -1.662225
2008-06-10 07:05:48 51°15.392 2°42.68 20.0422 1.468358 9.634992 -1.697049
2008-06-10 07:05:53 51°15.39 2°42.654 20.0607 1.530056 10.074851 -1.697049
2008-06-10 07:05:58 51°15.386 2°42.629 20.0579 1.511587 9.943042 -1.662225
2008-06-10 07:06:03 51°15.383 2°42.603 20.0546 1.511587 9.943042 -1.662225
2008-06-10 07:06:08 51°15.38 2°42.577 20.0567 1.39398 9.107448 -1.662225
2008-06-10 07:06:13 51°15.377 2°42.552 20.0494 1.392639 9.097795 -1.697049
2008-06-10 07:06:18 51°15.374 2°42.526 20.0587 1.463303 9.598873 -1.662225
2008-06-10 07:06:23 51°15.372 2°42.5 20.055 1.55905 10.28173 -1.662225
2008-06-10 07:06:28 51°15.369 2°42.475 20.0536 1.362417 8.884093 -1.662225
2008-06-10 07:06:33 51°15.366 2°42.449 20.0813 1.442464 9.450844 -1.697049
2008-06-10 07:06:38 51°15.363 2°42.423 20.0692 1.442464 9.450844 -1.697049
2008-06-10 07:06:43 51°15.36 2°42.398 20.0773 1.519222 9.997513 -1.662225
2008-06-10 07:06:48 51°15.357 2°42.372 20.0702 1.480016 9.718108 -1.662225
2008-06-10 07:06:53 51°15.354 2°42.347 20.0886 1.253816 8.121174 -1.662225
2008-06-10 07:06:58 51°15.35 2°42.321 20.0399 1.548319 10.20573 -1.662225
2008-06-10 07:07:03 51°15.348 2°42.295 20.0797 1.411104 9.228996 -1.662225
2008-06-10 07:07:08 51°15.344 2°42.27 20.0342 1.411104 9.228996 -1.662225
2008-06-10 07:07:13 51°15.342 2°42.244 20.0285 1.648313 10.922862 -1.662225
2008-06-10 07:07:18 51°15.34 2°42.218 20.0747 1.415952 9.263171 -1.662225
2008-06-10 07:07:23 51°15.337 2°42.192 20.0515 1.584434 10.463888 -1.697049
2008-06-10 07:07:28 51°15.335 2°42.167 20.0853 1.561836 10.302045 -1.662225
2008-06-10 07:07:33 51°15.333 2°42.141 20.0505 1.561836 10.302045 -1.662225
2008-06-10 07:07:38 51°15.33 2°42.115 20.0644 1.28692 8.353213 -1.662225
2008-06-10 07:07:43 51°15.328 2°42.089 20.0858 1.350761 8.802194 -1.662225
2008-06-10 07:07:48 51°15.326 2°42.063 20.0697 1.586808 10.480899 -1.697049
2008-06-10 07:07:53 51°15.324 2°42.037 20.0956 1.484246 9.748397 -1.697049
2008-06-10 07:07:58 51°15.322 2°42.011 20.0914 1.381602 9.020257 -1.662225
2008-06-10 07:08:03 51°15.32 2°41.985 20.0693 1.381602 9.020257 -1.662225
2008-06-10 07:08:08 51°15.318 2°41.959 20.0877 1.484453 9.749866 -1.662225
2008-06-10 07:08:13 51°15.315 2°41.933 20.0674 1.461962 9.589694 -1.662225
2008-06-10 07:08:18 51°15.313 2°41.907 20.0896 1.471247 9.655537 -1.697049
2008-06-10 07:08:23 51°15.311 2°41.881 20.0717 1.508389 9.920232 -1.697049
2008-06-10 07:08:28 51°15.309 2°41.855 20.0787 1.29022 8.376378 -1.662225
2008-06-10 07:08:33 51°15.306 2°41.829 20.071 1.521905 10.016842 -1.662225
2008-06-10 07:08:38 51°15.305 2°41.803 20.0858 1.521905 10.016842 -1.662225
2008-06-10 07:08:43 51°15.302 2°41.777 20.096 1.517159 9.982788 -1.662225
2008-06-10 07:08:48 51°15.3 2°41.75 20.1033 1.551518 10.228604 -1.662225
2008-06-10 07:08:53 51°15.298 2°41.724 20.0892 1.521698 10.015554 -1.662225
2008-06-10 07:08:58 51°15.295 2°41.699 20.0975 1.172561 7.554313 -1.662225
2008-06-10 07:09:03 51°15.292 2°41.673 20.0859 1.172561 7.554313 -1.662225
2008-06-10 07:09:08 51°15.289 2°41.647 20.0842 1.138845 7.320139 -1.662225
2008-06-10 07:09:13 51°15.286 2°41.621 20.0845 1.196379 7.719997 -1.662225
2008-06-10 07:09:18 51°15.283 2°41.596 20.0821 1.350246 8.798719 -1.697049
2008-06-10 07:09:23 51°15.28 2°41.57 20.0837 1.237007 8.003581 -1.662225
2008-06-10 07:09:28 51°15.277 2°41.545 20.0995 1.449066 9.497895 -1.662225
2008-06-10 07:09:33 51°15.273 2°41.519 20.0939 1.449066 9.497895 -1.662225
2008-06-10 07:09:38 51°15.27 2°41.494 20.0967 1.168746 7.527644 -1.697049
2008-06-10 07:09:43 51°15.267 2°41.468 20.1038 1.098225 7.038753 -1.697049
2008-06-10 07:09:48 51°15.264 2°41.443 20.0879 1.236182 7.997961 -1.662225
2008-06-10 07:09:53 51°15.261 2°41.417 20.102 1.095854 7.022366 -1.697049
2008-06-10 07:09:58 51°15.258 2°41.392 20.0829 1.270729 8.239799 -1.662225
2008-06-10 07:10:03 51°15.256 2°41.366 20.1026 1.028539 6.558676 -1.662225
2008-06-10 07:10:08 51°15.253 2°41.341 20.104 1.028539 6.558676 -1.662225
2008-06-10 07:10:13 51°15.25 2°41.315 20.1159 1.448138 9.491827 -1.662225
2008-06-10 07:10:18 51°15.248 2°41.289 20.0837 1.079566 6.910266 -1.662225
2008-06-10 07:10:23 51°15.245 2°41.264 20.1047 1.175654 7.576109 -1.662225
2008-06-10 07:10:28 51°15.242 2°41.238 20.0805 1.009882 6.430736 -1.697049
2008-06-10 07:10:33 51°15.24 2°41.213 20.0815 1.423276 9.315594 -1.662225
2008-06-10 07:10:38 51°15.239 2°41.187 20.0879 1.423276 9.315594 -1.662225
2008-06-10 07:10:43 51°15.237 2°41.161 20.0847 1.395631 9.119797 -1.662225
2008-06-10 07:10:48 51°15.236 2°41.135 20.0772 1.548216 10.20518 -1.662225
2008-06-10 07:10:53 51°15.236 2°41.109 20.0958 1.432457 9.380876 -1.662225
2008-06-10 07:10:58 51°15.235 2°41.082 20.1049 1.467017 9.62652 -1.662225
2008-06-10 07:11:03 51°15.235 2°41.056 20.1092 1.467017 9.62652 -1.662225
2008-06-10 07:11:08 51°15.235 2°41.03 20.1113 1.585157 10.470416 -1.662225
2008-06-10 07:11:13 51°15.235 2°41.004 20.1095 1.575354 10.400167 -1.697049
2008-06-10 07:11:18 51°15.235 2°40.977 20.1277 1.585673 10.474115 -1.662225
2008-06-10 07:11:23 51°15.235 2°40.951 20.1187 1.446178 9.478781 -1.662225
2008-06-10 07:11:28 51°15.235 2°40.925 20.1201 1.50942 9.928871 -1.662225
2008-06-10 07:11:33 51°15.235 2°40.899 20.1255 1.50942 9.928871 -1.662225
2008-06-10 07:11:38 51°15.235 2°40.873 20.1112 1.648623 10.926299 -1.662225
2008-06-10 07:11:43 51°15.236 2°40.847 20.1092 1.526135 10.048152 -1.662225
2008-06-10 07:11:48 51°15.236 2°40.821 20.1181 1.469287 9.64284 -1.662225
2008-06-10 07:11:53 51°15.236 2°40.794 20.1263 1.531397 10.085546 -1.662225
2008-06-10 07:11:58 51°15.236 2°40.768 20.1386 1.505912 9.903854 -1.662225
2008-06-10 07:12:03 51°15.235 2°40.742 20.1127 1.516952 9.982604 -1.662225
2008-06-10 07:12:08 51°15.235 2°40.716 20.1183 1.516952 9.982604 -1.662225
2008-06-10 07:12:13 51°15.235 2°40.69 20.1194 1.483318 9.742684 -1.662225
2008-06-10 07:12:18 51°15.234 2°40.664 20.109 1.571123 10.369673 -1.662225
2008-06-10 07:12:23 51°15.234 2°40.638 20.1437 1.178438 7.5959 -1.662225
2008-06-10 07:12:28 51°15.233 2°40.612 20.1086 1.308475 8.505399 -1.662225
2008-06-10 07:12:33 51°15.233 2°40.586 20.0975 1.293933 8.403374 -1.662225
2008-06-10 07:12:38 51°15.233 2°40.56 20.1167 1.293933 8.403374 -1.662225
2008-06-10 07:12:43 51°15.232 2°40.533 20.1127 1.385316 9.04734 -1.697049
2008-06-10 07:12:48 51°15.232 2°40.507 20.1205 1.51396 9.961438 -1.662225
2008-06-10 07:12:53 51°15.231 2°40.481 20.1371 1.361695 8.880634 -1.697049
2008-06-10 07:12:58 51°15.231 2°40.455 20.1158 1.484453 9.751124 -1.697049
2008-06-10 07:13:03 51°15.23 2°40.428 20.1074 1.484453 9.751124 -1.697049
2008-06-10 07:13:08 51°15.23 2°40.402 20.1294 1.218446 7.875068 -1.662225
2008-06-10 07:13:13 51°15.229 2°40.376 20.1395 1.381912 9.023608 -1.697049
2008-06-10 07:13:18 51°15.229 2°40.35 20.1312 1.457526 9.559399 -1.662225
2008-06-10 07:13:23 51°15.228 2°40.323 20.1241 1.308268 8.504105 -1.662225
2008-06-10 07:13:28 51°15.227 2°40.297 20.1273 1.360767 8.873918 -1.662225
2008-06-10 07:13:33 51°15.227 2°40.271 20.1587 1.604557 10.609571 -1.662225
2008-06-10 07:13:38 51°15.226 2°40.244 20.1512 1.604557 10.609571 -1.662225
2008-06-10 07:13:43 51°15.225 2°40.218 20.1371 1.189986 7.676589 -1.662225
2008-06-10 07:13:48 51°15.224 2°40.192 20.1298 1.380364 9.012671 -1.697049
2008-06-10 07:13:53 51°15.223 2°40.165 20.1537 1.511897 9.947084 -1.662225
2008-06-10 07:13:58 51°15.222 2°40.139 20.1526 1.194832 7.710639 -1.662225
2008-06-10 07:14:03 51°15.22 2°40.113 20.1443 1.369431 8.935748 -1.662225
2008-06-10 07:14:08 51°15.219 2°40.087 20.1403 1.369431 8.935748 -1.662225
2008-06-10 07:14:13 51°15.217 2°40.061 20.1444 1.227211 7.936434 -1.697049
2008-06-10 07:14:18 51°15.216 2°40.035 20.1575 1.266913 8.214115 -1.662225
2008-06-10 07:14:23 51°15.214 2°40.008 20.1526 1.381809 9.022879 -1.697049
2008-06-10 07:14:28 51°15.212 2°39.982 20.1483 1.140598 7.333107 -1.662225
2008-06-10 07:14:33 51°15.21 2°39.956 20.0967 1.140598 7.333107 -1.662225
2008-06-10 07:14:38 51°15.209 2°39.93 20.0946 0.949379 6.017424 -1.697049
2008-06-10 07:14:43 51°15.208 2°39.903 20.1402 1.262478 8.18274 -1.662225
2008-06-10 07:14:48 51°15.207 2°39.877 20.1288 1.603628 10.603101 -1.662225
2008-06-10 07:14:53 51°15.206 2°39.851 20.1507 1.43906 9.428593 -1.662225
2008-06-10 07:14:58 51°15.206 2°39.824 20.1412 1.496317 9.836001 -1.697049
2008-06-10 07:15:03 51°15.205 2°39.797 20.1553 1.496317 9.836001 -1.697049
2008-06-10 07:15:08 51°15.204 2°39.771 20.1506 1.539342 10.143058 -1.662225
2008-06-10 07:15:13 51°15.204 2°39.744 20.1491 1.622823 10.741542 -1.662225
2008-06-10 07:15:18 51°15.203 2°39.718 20.1646 1.587324 10.486725 -1.662225
2008-06-10 07:15:23 51°15.203 2°39.691 20.1722 1.643772 10.892396 -1.662225
2008-06-10 07:15:28 51°15.202 2°39.665 20.1554 1.525413 10.043921 -1.662225
2008-06-10 07:15:33 51°15.201 2°39.638 20.1706 1.578553 10.424047 -1.697049
2008-06-10 07:15:38 51°15.2 2°39.612 20.1606 1.578553 10.424047 -1.697049
2008-06-10 07:15:43 51°15.198 2°39.585 20.1625 1.34086 8.734486 -1.697049
2008-06-10 07:15:48 51°15.197 2°39.559 20.163 1.471763 9.661699 -1.662225
2008-06-10 07:15:53 51°15.196 2°39.533 20.1525 1.570091 10.363812 -1.662225
2008-06-10 07:15:58 51°15.195 2°39.506 20.1744 1.370565 8.944092 -1.662225
2008-06-10 07:16:03 51°15.193 2°39.48 20.147 1.426268 9.338526 -1.697049
2008-06-10 07:16:08 51°15.192 2°39.454 20.1676 1.426268 9.338526 -1.697049
2008-06-10 07:16:13 51°15.191 2°39.428 20.1453 1.456701 9.554414 -1.697049
2008-06-10 07:16:18 51°15.189 2°39.401 20.1767 1.482389 9.736971 -1.662225
2008-06-10 07:16:23 51°15.188 2°39.375 20.1642 1.43483 9.398922 -1.697049
2008-06-10 07:16:28 51°15.186 2°39.349 20.1641 1.497349 9.843717 -1.662225
2008-06-10 07:16:33 51°15.185 2°39.322 20.1595 1.497349 9.843717 -1.662225
2008-06-10 07:16:38 51°15.184 2°39.296 20.1713 1.362623 8.888006 -1.697049
2008-06-10 07:16:43 51°15.182 2°39.27 20.1699 1.315797 8.55784 -1.662225
2008-06-10 07:16:48 51°15.181 2°39.243 20.1876 1.484349 9.751108 -1.662225
2008-06-10 07:16:53 51°15.179 2°39.217 20.1569 1.455463 9.545968 -1.697049
2008-06-10 07:16:58 51°15.178 2°39.191 20.1499 1.354784 8.832843 -1.662225
2008-06-10 07:17:03 51°15.177 2°39.164 20.1756 1.342201 8.744098 -1.662225
2008-06-10 07:17:08 51°15.175 2°39.139 20.1573 1.342201 8.744098 -1.662225
2008-06-10 07:17:13 51°15.174 2°39.114 20.1505 1.27671 8.283568 -1.697049
2008-06-10 07:17:18 51°15.173 2°39.092 20.1453 1.364377 8.900549 -1.697049
2008-06-10 07:17:23 51°15.171 2°39.071 20.1778 1.580616 10.439222 -1.697049
2008-06-10 07:17:28 51°15.17 2°39.051 20.1922 1.600739 10.583732 -1.697049
2008-06-10 07:17:33 51°15.169 2°39.033 20.1827 1.621894 10.736055 -1.697049
2008-06-10 07:17:38 51°15.168 2°39.016 20.2016 1.621894 10.736055 -1.697049
2008-06-10 07:17:43 51°15.167 2°39 20.1998 1.658427 10.99892 -1.697049
2008-06-10 07:17:48 51°15.165 2°38.985 20.2085 1.624268 10.753115 -1.662225
2008-06-10 07:17:53 51°15.164 2°38.971 20.2074 1.584022 10.464209 -1.662225
2008-06-10 07:17:58 51°15.162 2°38.957 20.2008 1.589078 10.500659 -1.662225
2008-06-10 07:18:03 51°15.161 2°38.943 20.2171 1.639541 10.863154 -1.697049
2008-06-10 07:18:08 51°15.159 2°38.93 20.2112 1.639541 10.863154 -1.697049
2008-06-10 07:18:13 51°15.157 2°38.916 20.2252 1.523968 10.034717 -1.697049
2008-06-10 07:18:18 51°15.154 2°38.903 20.2011 1.610955 10.657665 -1.662225
2008-06-10 07:18:23 51°15.152 2°38.89 20.221 1.559669 10.289764 -1.662225
2008-06-10 07:18:28 51°15.15 2°38.876 20.2175 1.583299 10.459031 -1.662225
2008-06-10 07:18:33 51°15.147 2°38.862 20.2281 1.628086 10.780763 -1.662225
2008-06-10 07:18:38 51°15.144 2°38.848 20.2166 1.628086 10.780763 -1.662225
2008-06-10 07:18:43 51°15.141 2°38.834 20.2249 1.506532 9.910278 -1.697049
2008-06-10 07:18:48 51°15.138 2°38.819 20.2051 1.349627 8.797273 -1.697049
2008-06-10 07:18:53 51°15.135 2°38.804 20.1798 1.299502 8.444049 -1.697049
2008-06-10 07:18:58 51°15.132 2°38.789 20.1577 1.340344 8.731334 -1.697049
2008-06-10 07:19:03 51°15.13 2°38.774 20.1841 1.674528 11.114753 -1.662225
2008-06-10 07:19:08 51°15.129 2°38.758 20.2031 1.674528 11.114753 -1.662225
2008-06-10 07:19:13 51°15.127 2°38.742 20.2072 1.676902 11.132076 -1.697049
2008-06-10 07:19:18 51°15.126 2°38.725 20.2065 1.673393 11.106977 -1.697049
2008-06-10 07:19:23 51°15.125 2°38.709 20.2246 1.60012 10.580069 -1.662225
2008-06-10 07:19:28 51°15.124 2°38.692 20.2125 1.612709 10.670658 -1.662225
2008-06-10 07:19:33 51°15.123 2°38.675 20.2216 1.66751 11.065179 -1.662225
2008-06-10 07:19:38 51°15.121 2°38.658 20.2123 1.66751 11.065179 -1.662225
2008-06-10 07:19:43 51°15.12 2°38.641 20.234 1.532635 10.096811 -1.697049
2008-06-10 07:19:48 51°15.118 2°38.624 20.2249 1.513341 9.959409 -1.697049
2008-06-10 07:19:53 51°15.116 2°38.607 20.2342 1.527889 10.063089 -1.697049
2008-06-10 07:19:58 51°15.114 2°38.589 20.2137 1.45113 9.516408 -1.697049
2008-06-10 07:20:03 51°15.112 2°38.572 20.2353 1.45113 9.516408 -1.697049
2008-06-10 07:20:08 51°15.11 2°38.555 20.2212 1.516436 9.981499 -1.662225
2008-06-10 07:20:13 51°15.108 2°38.538 20.2181 1.458351 9.567558 -1.697049
2008-06-10 07:20:18 51°15.105 2°38.521 20.2226 1.496008 9.835609 -1.697049
2008-06-10 07:20:23 51°15.102 2°38.504 20.2368 1.51396 9.963643 -1.697049
2008-06-10 07:20:28 51°15.099 2°38.487 20.2375 1.576695 10.412082 -1.697049
2008-06-10 07:20:33 51°15.097 2°38.47 20.1946 1.174004 7.566583 -1.662225
2008-06-10 07:20:38 51°15.094 2°38.455 20.2257 1.174004 7.566583 -1.662225
2008-06-10 07:20:43 51°15.091 2°38.441 20.2316 1.512928 9.955913 -1.697049
2008-06-10 07:20:48 51°15.088 2°38.428 20.2308 1.531397 10.087964 -1.697049
2008-06-10 07:20:53 51°15.085 2°38.416 20.231 1.632111 10.810103 -1.662225
2008-06-10 07:20:58 51°15.083 2°38.405 20.2308 1.55193 10.235141 -1.662225
2008-06-10 07:21:03 51°15.08 2°38.395 20.2435 1.516643 9.983156 -1.662225
2008-06-10 07:21:08 51°15.077 2°38.386 20.2388 1.516643 9.983156 -1.662225
2008-06-10 07:21:13 51°15.074 2°38.378 20.2328 1.479088 9.715439 -1.697049
2008-06-10 07:21:18 51°15.071 2°38.37 20.2446 1.497762 9.848474 -1.697049
2008-06-10 07:21:23 51°15.068 2°38.363 20.2434 1.529953 10.078202 -1.697049
2008-06-10 07:21:28 51°15.065 2°38.357 20.2425 1.5185 9.996413 -1.697049
2008-06-10 07:21:33 51°15.062 2°38.351 20.2344 1.453399 9.532536 -1.662225
2008-06-10 07:21:38 51°15.059 2°38.346 20.2386 1.453399 9.532536 -1.662225
2008-06-10 07:21:43 51°15.056 2°38.341 20.2474 1.534286 10.10898 -1.697049
2008-06-10 07:21:48 51°15.054 2°38.337 20.2426 1.40182 9.166807 -1.662225
2008-06-10 07:21:53 51°15.051 2°38.333 20.2474 1.491468 9.80362 -1.662225
2008-06-10 07:21:58 51°15.048 2°38.329 20.247 1.422451 9.313005 -1.662225
2008-06-10 07:22:03 51°15.046 2°38.326 20.2476 1.422451 9.313005 -1.662225
2008-06-10 07:22:08 51°15.043 2°38.322 20.252 1.517262 9.987575 -1.662225
2008-06-10 07:22:13 51°15.041 2°38.319 20.2436 1.547081 10.200638 -1.662225
2008-06-10 07:22:18 51°15.038 2°38.317 20.2406 1.595063 10.544368 -1.697049
2008-06-10 07:22:23 51°15.036 2°38.314 20.2453 1.604867 10.614534 -1.697049
2008-06-10 07:22:28 51°15.033 2°38.312 20.2551 1.589078 10.50124 -1.697049
2008-06-10 07:22:33 51°15.031 2°38.31 20.2572 1.527064 10.057565 -1.662225
2008-06-10 07:22:38 51°15.029 2°38.308 20.2623 1.527064 10.057565 -1.662225
2008-06-10 07:22:43 51°15.027 2°38.307 20.2478 1.498174 9.851416 -1.697049
2008-06-10 07:22:48 51°15.024 2°38.305 20.2533 1.541199 10.158581 -1.662225
2008-06-10 07:22:53 51°15.022 2°38.304 20.263 1.53408 10.107692 -1.697049
2008-06-10 07:22:58 51°15.02 2°38.302 20.2645 1.517984 9.992915 -1.662225
2008-06-10 07:23:03 51°15.018 2°38.301 20.2677 1.441742 9.450072 -1.697049
2008-06-10 07:23:08 51°15.016 2°38.299 20.264 1.441742 9.450072 -1.697049
2008-06-10 07:23:13 51°15.014 2°38.297 20.2766 1.44298 9.458689 -1.697049
2008-06-10 07:23:18 51°15.011 2°38.295 20.2654 1.311981 8.53257 -1.697049
2008-06-10 07:23:23 51°15.008 2°38.292 20.2597 0.969684 6.157609 -1.662225
2008-06-10 07:23:28 51°15.005 2°38.289 20.2311 0.990401 6.299225 -1.697049
2008-06-10 07:23:33 51°15.002 2°38.284 20.2266 0.90898 5.743725 -1.662225
2008-06-10 07:23:38 51°14.999 2°38.279 20.2294 0.90898 5.743725 -1.662225
2008-06-10 07:23:43 51°14.997 2°38.274 20.2119 1.228242 7.944956 -1.662225
2008-06-10 07:23:48 51°14.995 2°38.267 20.2529 0.952471 6.039845 -1.697049
2008-06-10 07:23:53 51°14.993 2°38.26 17.3577 1.731812 11.548374 -1.383633
2008-06-10 07:23:58 51°14.992 2°38.253 16.8666 1.736458 11.586121 -1.488105
2008-06-10 07:24:03 51°14.991 2°38.244 16.4551 1.736458 11.586121 -1.488105
2008-06-10 07:24:08 51°14.991 2°38.236 16.305 2.958059 20.80206 4.501632
2008-06-10 07:24:13 51°14.991 2°38.228 16.2115 3.383243 23.899664 4.919521
2008-06-10 07:24:18 51°14.992 2°38.219 16.1007 3.487656 24.645023 3.28279
2008-06-10 07:24:23 51°14.994 2°38.211 16.0678 3.58609 25.810045 1.64606
2008-06-10 07:24:28 51°14.996 2°38.202 15.9974 3.75679 27.651398 1.541588
2008-06-10 07:24:33 51°14.999 2°38.194 16.0075 4.097127 31.044105 1.332643
2008-06-10 07:24:38 51°15.002 2°38.186 15.9775 4.097127 31.044105 1.332643
2008-06-10 07:24:43 51°15.006 2°38.179 15.9288 4.176599 32.118222 1.158523
2008-06-10 07:24:48 51°15.01 2°38.172 15.9297 4.199429 32.572371 1.054051
2008-06-10 07:24:53 51°15.015 2°38.166 15.8854 4.191858 32.679961 0.984403
2008-06-10 07:24:58 51°15.02 2°38.161 15.8969 4.196426 32.848908 0.984403
2008-06-10 07:25:03 51°15.025 2°38.156 15.8836 4.195597 32.933551 0.949579
2008-06-10 07:25:08 51°15.03 2°38.151 15.8662 4.195597 32.933551 0.949579
2008-06-10 07:25:13 51°15.035 2°38.148 15.8722 4.185015 32.899957 0.949579
2008-06-10 07:25:18 51°15.04 2°38.144 15.8535 4.1818 32.920257 0.984403
2008-06-10 07:25:23 51°15.045 2°38.141 15.8494 4.189167 33.02838 0.949579
2008-06-10 07:25:28 51°15.05 2°38.138 15.8686 4.197675 33.134618 0.914755
2008-06-10 07:25:33 51°15.056 2°38.136 15.8421 4.197675 33.134618 0.914755
2008-06-10 07:25:38 51°15.061 2°38.133 15.8566 4.186366 33.049887 0.949579
2008-06-10 07:25:43 51°15.066 2°38.132 15.8447 4.188753 33.093398 0.914755
2008-06-10 07:25:48 51°15.071 2°38.13 15.8346 4.19363 33.152132 0.914755
2008-06-10 07:25:53 51°15.075 2°38.129 15.8365 4.195601 33.176375 0.914755
2008-06-10 07:25:58 51°15.08 2°38.129 15.8529 4.192177 33.154337 0.949579
2008-06-10 07:26:03 51°15.085 2°38.128 15.8277 4.19446 33.181341 0.949579
2008-06-10 07:26:08 51°15.089 2°38.127 15.8357 4.19446 33.181341 0.949579
2008-06-10 07:26:13 51°15.094 2°38.127 15.8413 4.179105 33.053204 0.949579
2008-06-10 07:26:18 51°15.098 2°38.127 15.8155 4.186575 33.126708 0.949579
2008-06-10 07:26:23 51°15.102 2°38.126 15.8158 4.177445 33.051494 1.054051
2008-06-10 07:26:28 51°15.107 2°38.126 15.8213 4.169041 32.981341 1.054051
2008-06-10 07:26:33 51°15.111 2°38.126 15.8263 4.18948 33.167437 0.949579
2008-06-10 07:26:38 51°15.115 2°38.126 15.8347 4.18948 33.167437 0.949579
2008-06-10 07:26:43 51°15.119 2°38.126 15.8182 4.193008 33.203429 0.984403
2008-06-10 07:26:48 51°15.123 2°38.127 15.818 4.192178 33.201571 1.054051
2008-06-10 07:26:53 51°15.126 2°38.127 15.8207 4.189999 33.189838 1.228171
2008-06-10 07:26:58 51°15.13 2°38.127 15.8231 4.190207 33.195102 1.088875
2008-06-10 07:27:03 51°15.134 2°38.127 15.8111 4.186368 33.161138 1.019227
2008-06-10 07:27:08 51°15.138 2°38.128 15.8119 4.186368 33.161138 1.019227
2008-06-10 07:27:13 51°15.142 2°38.128 15.8065 4.181699 33.120522 0.984403
2008-06-10 07:27:18 51°15.145 2°38.129 15.813 4.183878 33.143903 0.984403
2008-06-10 07:27:23 51°15.149 2°38.13 15.8122 4.186576 33.168455 0.949579
2008-06-10 07:27:28 51°15.153 2°38.131 15.8101 4.191556 33.215958 0.949579
2008-06-10 07:27:33 51°15.157 2°38.131 15.8062 4.191556 33.215958 0.949579
2008-06-10 07:27:38 51°15.161 2°38.132 15.8079 4.189377 33.199418 0.949579
2008-06-10 07:27:43 51°15.164 2°38.132 15.7982 4.190415 33.212033 0.949579
2008-06-10 07:27:48 51°15.168 2°38.132 15.7965 4.190311 33.215921 0.984403
2008-06-10 07:27:53 51°15.171 2°38.133 15.804 4.188443 33.200073 0.949579
2008-06-10 07:27:58 51°15.175 2°38.133 15.8005 4.187198 33.188365 0.949579
2008-06-10 07:28:03 51°15.179 2°38.133 15.7964 4.189689 33.212469 0.949579
2008-06-10 07:28:08 51°15.183 2°38.134 15.8023 4.189689 33.212469 0.949579
2008-06-10 07:28:13 51°15.186 2°38.134 15.8015 4.191141 33.228078 0.949579
2008-06-10 07:28:18 51°15.19 2°38.135 15.7974 4.190622 33.225545 0.949579
2008-06-10 07:28:23 51°15.194 2°38.135 15.7979 4.189481 33.218186 0.949579
2008-06-10 07:28:28 51°15.198 2°38.136 15.7929 4.191764 33.240464 0.914755
2008-06-10 07:28:33 51°15.202 2°38.136 15.7999 4.19249 33.247584 0.949579
2008-06-10 07:28:38 51°15.206 2°38.137 15.7975 4.19249 33.247584 0.949579
2008-06-10 07:28:43 51°15.21 2°38.137 15.7986 4.192594 33.248503 0.914755
2008-06-10 07:28:48 51°15.213 2°38.138 15.8188 4.191453 33.239769 0.914755
2008-06-10 07:28:53 51°15.217 2°38.138 15.7832 4.192179 33.24689 0.949579
2008-06-10 07:28:58 51°15.221 2°38.138 15.7862 4.191764 33.245277 0.949579
2008-06-10 07:29:03 51°15.225 2°38.138 15.7836 4.191764 33.245277 0.949579
2008-06-10 07:29:08 51°15.228 2°38.138 15.7887 4.190104 33.231947 0.879931
2008-06-10 07:29:13 51°15.232 2°38.139 15.7911 4.191868 33.246884 0.914755
2008-06-10 07:29:18 51°15.236 2°38.139 15.7951 4.191971 33.244365 1.019227
2008-06-10 07:29:23 51°15.24 2°38.139 15.7946 4.191349 33.234726 1.506764
2008-06-10 07:29:28 51°15.244 2°38.139 15.7882 4.19083 33.232881 1.019227
2008-06-10 07:29:33 51°15.248 2°38.14 15.7848 4.190311 33.231722 0.845107
2008-06-10 07:29:38 51°15.252 2°38.14 15.7864 4.190311 33.231722 0.845107
2008-06-10 07:29:43 51°15.255 2°38.141 15.7847 4.189274 33.224594 0.70581
2008-06-10 07:29:48 51°15.259 2°38.141 15.7901 4.188755 33.218624 0.70581
2008-06-10 07:29:53 51°15.263 2°38.142 15.7928 4.188029 33.210131 0.636162
2008-06-10 07:29:58 51°15.267 2°38.142 15.7926 4.187925 33.209899 0.70581
2008-06-10 07:30:03 51°15.271 2°38.142 15.7903 4.188029 33.213566 0.670986
2008-06-10 07:30:08 51°15.275 2°38.142 15.7921 4.188029 33.213566 0.670986
2008-06-10 07:30:13 51°15.279 2°38.142 15.7964 4.185331 33.193106 0.670986
2008-06-10 07:30:18 51°15.282 2°38.142 15.7974 4.187406 33.212174 0.636162
2008-06-10 07:30:23 51°15.286 2°38.142 15.7936 4.18419 33.182997 0.601338
2008-06-10 07:30:28 51°15.29 2°38.143 15.7904 4.186057 33.198165 0.636162
2008-06-10 07:30:33 51°15.294 2°38.143 15.7924 4.186057 33.198165 0.636162
2008-06-10 07:30:38 51°15.298 2°38.143 15.786 4.185954 33.197933 0.601338
2008-06-10 07:30:43 51°15.302 2°38.143 15.7887 4.185746 33.196095 0.601338
2008-06-10 07:30:48 51°15.306 2°38.143 15.7857 4.185435 33.191965 0.566514
2008-06-10 07:30:53 51°15.309 2°38.143 15.7862 4.18253 33.16555 0.566514
2008-06-10 07:30:58 51°15.313 2°38.144 15.7935 4.18336 33.173587 0.566514
2008-06-10 07:31:03 51°15.317 2°38.144 15.7971 4.18502 33.189662 0.566514
2008-06-10 07:31:08 51°15.321 2°38.144 15.7971 4.18502 33.189662 0.566514
2008-06-10 07:31:13 51°15.325 2°38.144 15.7999 4.184294 33.184603 0.636162
2008-06-10 07:31:18 51°15.329 2°38.144 15.8019 4.180351 33.151056 0.601338
2008-06-10 07:31:23 51°15.333 2°38.144 15.7982 4.184294 33.187349 0.601338
2008-06-10 07:31:28 51°15.336 2°38.144 15.8003 4.183775 33.182754 0.601338
2008-06-10 07:31:33 51°15.34 2°38.144 15.793 4.183775 33.180694 0.601338
2008-06-10 07:31:38 51°15.344 2°38.144 15.7936 4.183775 33.180694 0.601338
2008-06-10 07:31:43 51°15.348 2°38.144 15.7929 4.184086 33.181392 0.566514
2008-06-10 07:31:48 51°15.352 2°38.144 15.793 4.184397 33.182776 0.53169
2008-06-10 07:31:53 51°15.355 2°38.144 15.7947 4.184501 33.182322 0.601338
2008-06-10 07:31:58 51°15.359 2°38.145 15.7955 4.184709 33.184159 0.566514
2008-06-10 07:32:03 51°15.363 2°38.145 15.799 4.184709 33.184846 0.566514
2008-06-10 07:32:08 51°15.367 2°38.145 15.7998 4.184709 33.184846 0.566514
2008-06-10 07:32:13 51°15.371 2°38.145 15.8042 4.184605 33.1853 0.601338
2008-06-10 07:32:18 51°15.375 2°38.145 15.8051 4.184397 33.184835 0.566514
2008-06-10 07:32:23 51°15.379 2°38.146 15.7995 4.184501 33.186441 0.53169
2008-06-10 07:32:28 51°15.382 2°38.146 15.803 4.18419 33.182997 0.566514
2008-06-10 07:32:33 51°15.386 2°38.146 15.8058 4.183567 33.176797 0.566514
2008-06-10 07:32:38 51°15.39 2°38.146 15.8014 4.183567 33.176797 0.566514
2008-06-10 07:32:43 51°15.394 2°38.147 15.7984 4.185954 33.19656 0.566514
2008-06-10 07:32:48 51°15.398 2°38.147 15.7983 4.179521 33.13822 0.566514
2008-06-10 07:32:53 51°15.402 2°38.147 15.7994 4.184605 33.181868 0.566514
2008-06-10 07:32:58 51°15.405 2°38.147 15.7973 4.185227 33.188067 0.53169
2008-06-10 07:33:03 51°15.409 2°38.148 15.7986 4.186161 33.195651 0.601338
2008-06-10 07:33:08 51°15.413 2°38.148 15.8009 4.186161 33.195651 0.601338
2008-06-10 07:33:13 51°15.417 2°38.148 15.8038 4.186472 33.199094 0.601338
2008-06-10 07:33:18 51°15.421 2°38.148 15.8018 4.186576 33.201387 0.566514
2008-06-10 07:33:23 51°15.425 2°38.149 15.8076 4.186472 33.201154 0.53169
2008-06-10 07:33:28 51°15.429 2°38.149 15.8011 4.186369 33.200235 0.496866
2008-06-10 07:33:33 51°15.432 2°38.15 15.7948 4.186369 33.200235 0.566514
2008-06-10 07:33:38 51°15.436 2°38.15 15.795 4.186369 33.200235 0.566514
2008-06-10 07:33:43 51°15.44 2°38.151 15.7973 4.186369 33.199549 0.566514
2008-06-10 07:33:48 51°15.444 2°38.151 15.7985 4.186265 33.197256 0.566514
2008-06-10 07:33:53 51°15.448 2°38.152 15.8031 4.186265 33.197256 0.566514
2008-06-10 07:33:58 51°15.452 2°38.152 15.8023 4.186057 33.194732 0.53169
2008-06-10 07:34:03 51°15.456 2°38.153 15.8039 4.186161 33.197711 0.566514
2008-06-10 07:34:08 51°15.459 2°38.154 15.8083 4.186161 33.197711 0.566514
2008-06-10 07:34:13 51°15.463 2°38.154 15.7986 4.186161 33.199084 0.53169
2008-06-10 07:34:18 51°15.467 2°38.155 15.7991 4.186057 33.200226 0.566514
2008-06-10 07:34:23 51°15.471 2°38.155 15.7949 4.18585 33.197701 0.566514
2008-06-10 07:34:28 51°15.475 2°38.156 15.7971 4.185954 33.19656 0.601338
2008-06-10 07:34:33 51°15.479 2°38.157 15.7946 4.186369 33.200922 0.496866
2008-06-10 07:34:38 51°15.483 2°38.157 15.7956 4.186369 33.200922 0.496866
2008-06-10 07:34:43 51°15.486 2°38.158 15.7958 4.186369 33.200235 0.566514
2008-06-10 07:34:48 51°15.49 2°38.159 15.7918 4.186472 33.201154 0.53169
2008-06-10 07:34:53 51°15.494 2°38.159 15.7972 4.186576 33.203447 0.53169
2008-06-10 07:34:58 51°15.498 2°38.16 15.797 4.186576 33.204821 0.566514
2008-06-10 07:35:03 51°15.502 2°38.161 15.7934 4.186265 33.202751 0.53169
2008-06-10 07:35:08 51°15.506 2°38.162 15.7879 4.186265 33.202751 0.53169
2008-06-10 07:35:13 51°15.51 2°38.163 15.7853 4.186576 33.206195 0.53169
2008-06-10 07:35:18 51°15.513 2°38.164 15.7903 4.18668 33.208488 0.53169
2008-06-10 07:35:23 51°15.517 2°38.165 15.7901 4.186473 33.20665 0.566514
2008-06-10 07:35:28 51°15.521 2°38.166 15.7917 4.186265 33.204125 0.601338
2008-06-10 07:35:33 51°15.525 2°38.168 15.7943 4.186058 33.202974 0.566514
2008-06-10 07:35:38 51°15.528 2°38.169 15.7947 4.186058 33.202974 0.566514
2008-06-10 07:35:43 51°15.532 2°38.17 15.7959 4.186161 33.205954 0.601338
2008-06-10 07:35:48 51°15.536 2°38.172 15.7901 4.186161 33.208015 0.601338
2008-06-10 07:35:53 51°15.54 2°38.174 15.7854 4.185954 33.206177 0.566514
2008-06-10 07:35:58 51°15.544 2°38.175 15.7872 4.18585 33.205258 0.636162
2008-06-10 07:36:03 51°15.547 2°38.177 15.7894 4.185643 33.202732 0.670986
2008-06-10 07:36:08 51°15.551 2°38.178 15.7876 4.185643 33.202732 0.670986
2008-06-10 07:36:13 51°15.555 2°38.18 15.7847 4.185643 33.202045 0.670986
2008-06-10 07:36:18 51°15.559 2°38.181 15.7844 4.185746 33.203651 0.670986
2008-06-10 07:36:23 51°15.562 2°38.183 15.7921 4.185746 33.204338 0.670986
2008-06-10 07:36:28 51°15.566 2°38.185 15.7886 4.185746 33.205713 0.670986
2008-06-10 07:36:33 51°15.57 2°38.186 15.7939 4.185746 33.2064 0.636162
2008-06-10 07:36:38 51°15.573 2°38.188 15.796 4.185746 33.2064 0.636162
2008-06-10 07:36:43 51°15.577 2°38.19 15.7974 4.186161 33.210077 0.636162
2008-06-10 07:36:48 51°15.581 2°38.192 15.8012 4.186369 33.212603 0.601338
2008-06-10 07:36:53 51°15.585 2°38.193 15.7974 4.186265 33.211684 0.566514
2008-06-10 07:36:58 51°15.589 2°38.195 15.7953 4.186058 33.209158 0.601338
2008-06-10 07:37:03 51°15.593 2°38.197 15.7931 4.185954 33.206177 0.566514
2008-06-10 07:37:08 51°15.596 2°38.199 15.7847 4.185954 33.206177 0.566514
2008-06-10 07:37:13 51°15.6 2°38.201 15.7913 4.186265 33.20756 0.53169
2008-06-10 07:37:18 51°15.604 2°38.202 15.787 4.186265 33.206186 0.566514
2008-06-10 07:37:23 51°15.608 2°38.204 15.7899 4.186161 33.203893 0.53169